Flight Track Log - Related Links

Times and Time Zones

All times are in EDT time to prevent confusion due to time zone crossing. See the N757AN flight status page for this flight to view local times or setup timezone preferences in your user account.

Time Position Orientation Groundspeed Altitude Reporting Facility
EDT Latitude Longitude Course Direction KTS MPH feet Rate Location/Type
Wed 06:13:33 AM 35.7880 140.3590 329° Northwest 185 213 1,600  Level FlightAware ADS-B
Wed 06:13:53 AM 35.8030 140.3480 329° Northwest 186 214 2,400 2,100 Climbing FlightAware ADS-B
Wed 06:14:13 AM 35.8180 140.3370 329° Northwest 189 217 3,000 1,950 Climbing FlightAware ADS-B
Wed 06:14:33 AM 35.8330 140.3260 329° Northwest 191 220 3,700 1,500 Climbing FlightAware ADS-B
Wed 06:14:53 AM 35.8490 140.3140 329° Northwest 212 244 4,000 1,043 Climbing FlightAware ADS-B
Wed 06:15:19 AM 35.8740 140.2970 331° Northwest 242 278 4,500 1,105 Climbing FlightAware ADS-B
Wed 06:15:31 AM 35.8870 140.2910 339° North 254 292 4,700 1,200 Climbing FlightAware ADS-B
Wed 06:15:39 AM 35.8960 140.2890 350° North 260 299 4,900 2,200 Climbing FlightAware ADS-B
Wed 06:16:01 AM 35.9190 140.2970 16° North 262 302 5,800 2,100 Climbing FlightAware ADS-B
Wed 06:16:19 AM 35.9370 140.3170 42° Northeast 280 322 6,300 1,765 Climbing FlightAware ADS-B
Wed 06:16:35 AM 35.9460 140.3400 64° Northeast 286 329 6,800 2,000 Climbing FlightAware ADS-B
Wed 06:16:43 AM 35.9490 140.3540 75° East 294 338 7,100 1,429 Climbing FlightAware ADS-B
Wed 06:16:56 AM 35.9510 140.3740 83° East 304 350 7,300 1,105 Climbing FlightAware ADS-B
Wed 06:17:21 AM 35.9470 140.4130 97° East 319 367 7,800 1,050 Climbing FlightAware ADS-B
Wed 06:17:36 AM 35.9380 140.4410 112° Southeast 334 384 8,000 720 Climbing FlightAware ADS-B
Wed 06:17:46 AM 35.9260 140.4600 128° Southeast 351 404 8,100 1,024 Climbing FlightAware ADS-B
Wed 06:18:17 AM 35.8950 140.5000 134° Southeast 372 428 8,700 1,404 Climbing FlightAware ADS-B
Wed 06:18:33 AM 35.8760 140.5260 132° Southeast 377 434 9,200 1,875 Climbing FlightAware ADS-B
Wed 06:18:49 AM 35.8560 140.5540 131° Southeast 383 441 9,700 2,526 Climbing FlightAware ADS-B
Wed 06:19:30 AM 35.8100 140.6290 127° Southeast 390 449 11,600 2,654 Climbing FlightAware ADS-B
Wed 06:19:41 AM 35.8010 140.6530 115° Southeast 398 458 12,000 2,069 Climbing FlightAware ADS-B
Wed 06:19:59 AM 35.7930 140.6900 105° East 409 471 12,600 2,125 Climbing FlightAware ADS-B
Wed 06:20:29 AM 35.7940 140.7660 89° East 426 490 13,700 2,000 Climbing FlightAware ADS-B
Wed 06:21:05 AM 35.8040 140.8510 82° East 438 504 14,800 918 Climbing FlightAware ADS-B
Wed 06:21:54 AM 35.8210 140.9770 81° East 444 511 15,000 494 Climbing FlightAware ADS-B
Wed 06:22:30 AM 35.8320 141.0670 81° East 450 518 15,500 1,286 Climbing FlightAware ADS-B
Wed 06:23:04 AM 35.8440 141.1540 80° East 462 532 16,500 1,714 Climbing FlightAware ADS-B
Wed 06:23:40 AM 35.8570 141.2490 80° East 475 547 17,500 1,583 Climbing FlightAware ADS-B
Wed 06:24:16 AM 35.8710 141.3460 80° East 486 559 18,400 1,478 Climbing FlightAware ADS-B
Wed 06:24:49 AM 35.8860 141.4400 79° East 496 571 19,200 1,216 Climbing FlightAware ADS-B
Wed 06:25:30 AM 35.9050 141.5510 78° East 520 598 19,900 868 Climbing FlightAware ADS-B
Wed 06:26:05 AM 35.9320 141.6420 70° East 535 616 20,300 943 Climbing FlightAware ADS-B
Wed 06:26:40 AM 35.9670 141.7560 69° East 552 635 21,000 857 Climbing FlightAware ADS-B
Wed 06:27:15 AM 36.0010 141.8590 68° East 569 655 21,300 943 Climbing FlightAware ADS-B
Wed 06:27:50 AM 36.0370 141.9650 67° East 574 661 22,100 1,371 Climbing FlightAware ADS-B
Wed 06:28:25 AM 36.0730 142.0730 68° East 579 666 22,900 1,268 Climbing FlightAware ADS-B
Wed 06:29:01 AM 36.1080 142.1800 68° East 581 669 23,600 1,714 Climbing FlightAware ADS-B
Wed 06:29:35 AM 36.1440 142.2870 67° East 568 654 24,900 1,913 Climbing FlightAware ADS-B
Wed 06:30:10 AM 36.1760 142.3850 68° East 568 654 25,800 1,286 Climbing FlightAware ADS-B
Wed 06:30:45 AM 36.2140 142.4990 68° East 572 658 26,400 1,029 Climbing FlightAware ADS-B
Wed 06:31:20 AM 36.2470 142.6010 68° East 572 658 27,000 1,029 Climbing FlightAware ADS-B
Wed 06:31:55 AM 36.2830 142.7110 68° East 575 662 27,600 943 Climbing FlightAware ADS-B
Wed 06:32:30 AM 36.3180 142.8190 68° East 577 664 28,100 525 Climbing FlightAware ADS-B
Wed 06:33:15 AM 36.3560 142.9380 68° East 578 665 28,300 450 Climbing FlightAware ADS-B
Wed 06:33:50 AM 36.3980 143.0680 68° East 593 682 28,700 600 Climbing FlightAware ADS-B
Wed 06:34:25 AM 36.4340 143.1790 68° East 603 694 29,000 257 Climbing FlightAware ADS-B
Wed 06:35:00 AM 36.4620 143.2680 69° East 603 694 29,000 429 Level FlightAware ADS-B
Wed 06:35:35 AM 36.5060 143.4040 68° East 616 709 29,500 640 Climbing FlightAware ADS-B
Wed 06:36:15 AM 36.5480 143.5380 69° East 621 715 29,800 480 Climbing FlightAware ADS-B
Wed 06:36:50 AM 36.5860 143.6570 68° East 626 720 30,100 483 Climbing FlightAware ADS-B
Wed 06:37:42 AM 36.6350 143.8090 68° East 625 719 30,500 273 Climbing FlightAware ADS-B
Wed 06:38:18 AM 36.6680 143.9120 68° East 625 719 30,500  Level FlightAware ADS-B
Wed 06:38:54 AM 36.7010 144.0140 68° East 625 719 30,500  Level FlightAware ADS-B
Wed 06:39:30 AM 36.7340 144.1160 68° East 625 719 30,500  Level FlightAware ADS-B
Wed 06:40:06 AM 36.7670 144.2190 68° East 625 719 30,500  Level FlightAware ADS-B
Wed 06:40:42 AM 36.8000 144.3210 68° East 625 719 30,500  Level FlightAware ADS-B
Wed 06:41:18 AM 36.8330 144.4240 68° East 625 719 30,500  Level FlightAware ADS-B
Wed 06:41:55 AM 36.8670 144.5290 68° East 625 719 30,500 928 Level FlightAware ADS-B
Wed 06:42:55 AM 36.9590 144.8670 71° East 666 766 32,000 865 Climbing FlightAware ADS-B
Wed 06:43:39 AM 36.9930 144.9830 70° East 610 702 32,000  Level FlightAware ADS-B
Wed 06:44:15 AM 37.0230 145.0850 70° East 610 702 32,000  Level FlightAware ADS-B
Wed 06:44:51 AM 37.0520 145.1860 70° East 610 702 32,000  Level FlightAware ADS-B
Wed 06:45:27 AM 37.0820 145.2880 70° East 610 702 32,000  Level FlightAware ADS-B
Wed 06:46:03 AM 37.1110 145.3900 70° East 610 702 32,000  Level FlightAware ADS-B
Wed 06:46:40 AM 37.1420 145.4940 69° East 610 702 32,000  Level FlightAware ADS-B
Wed 06:47:16 AM 37.1710 145.5960 70° East 610 702 32,000  Level FlightAware ADS-B
Wed 06:47:53 AM 37.2010 145.7010 70° East 610 702 32,000  Level FlightAware ADS-B
Wed 06:48:29 AM 37.2310 145.8030 70° East 610 702 32,000  Level FlightAware ADS-B
Wed 06:49:05 AM 37.2600 145.9050 70° East 610 702 32,000  Level FlightAware ADS-B
Wed 06:49:41 AM 37.2900 146.0070 70° East 610 702 32,000  Level FlightAware ADS-B
Wed 06:50:17 AM 37.3190 146.1090 70° East 610 702 32,000  Level FlightAware ADS-B
Wed 06:50:54 AM 37.3500 146.2140 70° East 610 702 32,000  Level FlightAware ADS-B
Wed 06:51:30 AM 37.3790 146.3160 70° East 610 702 32,000  Level FlightAware ADS-B
Wed 06:52:07 AM 37.4100 146.4210 70° East 610 702 32,000  Level FlightAware ADS-B
Wed 06:52:44 AM 37.4400 146.5260 70° East 610 702 32,000  Level FlightAware ADS-B
Wed 06:55:00 AM 37.6593 146.8428 49° Northeast  Level Estimated
Wed 06:56:00 AM 37.7557 146.9832 49° Northeast  Level Estimated
Wed 06:57:00 AM 37.8520 147.1240 49° Northeast  Level Estimated
Wed 06:58:00 AM 37.9481 147.2651 49° Northeast  Level Estimated
Wed 06:59:00 AM 38.0441 147.4066 49° Northeast  Level Estimated
Wed 07:00:00 AM 38.1399 147.5484 49° Northeast  Level Estimated
Wed 07:01:00 AM 38.2355 147.6906 49° Northeast  Level Estimated
Wed 07:02:00 AM 38.3310 147.8332 50° Northeast  Level Estimated
Wed 07:03:00 AM 38.4262 147.9762 50° Northeast  Level Estimated
Wed 07:04:00 AM 38.5213 148.1195 50° Northeast  Level Estimated
Wed 07:05:00 AM 38.6162 148.2633 50° Northeast  Level Estimated
Wed 07:06:00 AM 38.7110 148.4074 50° Northeast  Level Estimated
Wed 07:07:00 AM 38.8056 148.5519 50° Northeast  Level Estimated
Wed 07:08:00 AM 38.8999 148.6967 50° Northeast  Level Estimated
Wed 07:09:00 AM 38.9942 148.8420 50° Northeast  Level Estimated
Wed 07:10:00 AM 39.0882 148.9877 50° Northeast  Level Estimated
Wed 07:11:00 AM 39.1820 149.1337 50° Northeast  Level Estimated
Wed 07:12:00 AM 39.2757 149.2801 50° Northeast  Level Estimated
Wed 07:13:00 AM 39.3692 149.4269 50° Northeast  Level Estimated
Wed 07:14:00 AM 39.4625 149.5741 51° Northeast  Level Estimated
Wed 07:15:00 AM 39.5567 149.7236 51° Northeast  Level Estimated
Wed 07:16:00 AM 39.6508 149.8734 51° Northeast  Level Estimated
Wed 07:17:00 AM 39.7447 150.0236 51° Northeast  Level Estimated
Wed 07:18:00 AM 39.8383 150.1743 51° Northeast  Level Estimated
Wed 07:19:00 AM 39.9318 150.3253 51° Northeast  Level Estimated
Wed 07:20:00 AM 40.0251 150.4768 51° Northeast  Level Estimated
Wed 07:21:00 AM 40.1182 150.6287 51° Northeast  Level Estimated
Wed 07:22:00 AM 40.2111 150.7810 51° Northeast  Level Estimated
Wed 07:23:00 AM 40.3037 150.9337 51° Northeast  Level Estimated
Wed 07:24:00 AM 40.3962 151.0869 52° Northeast  Level Estimated
Wed 07:25:00 AM 40.4885 151.2404 52° Northeast  Level Estimated
Wed 07:26:00 AM 40.5806 151.3944 52° Northeast  Level Estimated
Wed 07:27:00 AM 40.6725 151.5488 52° Northeast  Level Estimated
Wed 07:28:00 AM 40.7641 151.7036 52° Northeast  Level Estimated
Wed 07:29:00 AM 40.8556 151.8589 52° Northeast  Level Estimated
Wed 07:30:00 AM 40.9468 152.0146 52° Northeast  Level Estimated
Wed 07:31:00 AM 41.0379 152.1707 52° Northeast  Level Estimated
Wed 07:32:00 AM 41.1287 152.3272 52° Northeast  Level Estimated
Wed 07:33:00 AM 41.2193 152.4842 52° Northeast  Level Estimated
Wed 07:34:00 AM 41.3097 152.6416 53° Northeast  Level Estimated
Wed 07:35:00 AM 41.3999 152.7995 53° Northeast  Level Estimated
Wed 07:36:00 AM 41.4899 152.9578 53° Northeast  Level Estimated
Wed 07:37:00 AM 41.5796 153.1165 53° Northeast  Level Estimated
Wed 07:38:00 AM 41.6692 153.2757 53° Northeast  Level Estimated
Wed 07:39:00 AM 41.7585 153.4353 53° Northeast  Level Estimated
Wed 07:40:00 AM 41.8476 153.5954 53° Northeast  Level Estimated
Wed 07:41:00 AM 41.9364 153.7558 53° Northeast  Level Estimated
Wed 07:42:00 AM 42.0251 153.9168 53° Northeast  Level Estimated
Wed 07:43:00 AM 42.1135 154.0782 54° Northeast  Level Estimated
Wed 07:44:00 AM 42.2017 154.2401 54° Northeast  Level Estimated
Wed 07:45:00 AM 42.2897 154.4023 54° Northeast  Level Estimated
Wed 07:46:00 AM 42.3774 154.5651 54° Northeast  Level Estimated
Wed 07:47:00 AM 42.4649 154.7283 54° Northeast  Level Estimated
Wed 07:48:00 AM 42.5522 154.8920 54° Northeast  Level Estimated
Wed 07:49:00 AM 42.6392 155.0561 54° Northeast  Level Estimated
Wed 07:50:00 AM 42.7260 155.2207 54° Northeast  Level Estimated
Wed 07:51:00 AM 42.8126 155.3858 54° Northeast  Level Estimated
Wed 07:52:00 AM 42.8989 155.5513 55° Northeast  Level Estimated
Wed 07:53:00 AM 42.9850 155.7172 55° Northeast  Level Estimated
Wed 07:54:00 AM 43.0709 155.8837 55° Northeast  Level Estimated
Wed 07:55:00 AM 43.1565 156.0506 55° Northeast  Level Estimated
Wed 07:56:00 AM 43.2419 156.2179 55° Northeast  Level Estimated
Wed 07:57:00 AM 43.3270 156.3858 55° Northeast  Level Estimated
Wed 07:58:00 AM 43.4118 156.5541 55° Northeast  Level Estimated
Wed 07:59:00 AM 43.4965 156.7229 55° Northeast  Level Estimated
Wed 08:00:00 AM 43.5809 156.8921 55° Northeast  Level Estimated
Wed 08:01:00 AM 43.6650 157.0618 56° Northeast  Level Estimated
Wed 08:02:00 AM 43.7489 157.2321 56° Northeast  Level Estimated
Wed 08:03:00 AM 43.8325 157.4027 56° Northeast  Level Estimated
Wed 08:04:00 AM 43.9159 157.5739 56° Northeast  Level Estimated
Wed 08:05:00 AM 43.9990 157.7455 56° Northeast  Level Estimated
Wed 08:06:00 AM 44.0821 157.9182 56° Northeast  Level Estimated
Wed 08:07:00 AM 44.1649 158.0913 56° Northeast  Level Estimated
Wed 08:08:00 AM 44.2475 158.2649 56° Northeast  Level Estimated
Wed 08:09:00 AM 44.3298 158.4391 56° Northeast  Level Estimated
Wed 08:10:00 AM 44.4119 158.6136 57° Northeast  Level Estimated
Wed 08:11:00 AM 44.4937 158.7887 57° Northeast  Level Estimated
Wed 08:12:00 AM 44.5752 158.9643 57° Northeast  Level Estimated
Wed 08:13:00 AM 44.6565 159.1404 57° Northeast  Level Estimated
Wed 08:14:00 AM 44.7374 159.3170 57° Northeast  Level Estimated
Wed 08:15:00 AM 44.8181 159.4940 57° Northeast  Level Estimated
Wed 08:16:00 AM 44.8986 159.6716 57° Northeast  Level Estimated
Wed 08:17:00 AM 44.9787 159.8496 57° Northeast  Level Estimated
Wed 08:18:00 AM 45.0586 160.0282 58° Northeast  Level Estimated
Wed 08:19:00 AM 45.1382 160.2072 58° Northeast  Level Estimated
Wed 08:20:00 AM 45.2175 160.3868 58° Northeast  Level Estimated
Wed 08:21:00 AM 45.2966 160.5668 58° Northeast  Level Estimated
Wed 08:22:00 AM 45.3753 160.7474 58° Northeast  Level Estimated
Wed 08:23:00 AM 45.4538 160.9284 58° Northeast  Level Estimated
Wed 08:24:00 AM 45.5320 161.1100 58° Northeast  Level Estimated
Wed 08:25:00 AM 45.6099 161.2920 59° Northeast  Level Estimated
Wed 08:26:00 AM 45.6875 161.4746 59° Northeast  Level Estimated
Wed 08:27:00 AM 45.7648 161.6577 59° Northeast  Level Estimated
Wed 08:28:00 AM 45.8418 161.8412 59° Northeast  Level Estimated
Wed 08:29:00 AM 45.9186 162.0253 59° Northeast  Level Estimated
Wed 08:30:00 AM 45.9950 162.2099 59° Northeast  Level Estimated
Wed 08:31:00 AM 46.0711 162.3951 59° Northeast  Level Estimated
Wed 08:32:00 AM 46.1469 162.5807 59° Northeast  Level Estimated
Wed 08:32:26 AM 45.3500 166.1500 75° East 574 661 32,000  Level Oakland Oceanic (ODAPS)
Wed 08:33:00 AM 46.2225 162.7668 60° Northeast  Level Estimated
Wed 08:34:00 AM 46.2977 162.9534 60° Northeast  Level Estimated
Wed 08:35:00 AM 46.3726 163.1406 60° Northeast  Level Estimated
Wed 08:36:00 AM 46.4473 163.3282 60° Northeast  Level Estimated
Wed 08:37:00 AM 46.5216 163.5164 60° Northeast  Level Estimated
Wed 08:38:00 AM 45.5810 167.4233 76° East 574 661 32,000  Level FlightAware Transoceanic
Wed 08:39:00 AM 45.6181 167.6365 76° East 574 661 32,000  Level FlightAware Transoceanic
Wed 08:40:00 AM 45.6548 167.8500 76° East 574 661 32,000  Level FlightAware Transoceanic
Wed 08:41:00 AM 45.6912 168.0638 76° East 574 661 32,000  Level FlightAware Transoceanic
Wed 08:42:00 AM 45.7271 168.2779 77° East 574 661 32,000  Level FlightAware Transoceanic
Wed 08:43:00 AM 45.7626 168.4922 77° East 574 661 32,000  Level FlightAware Transoceanic
Wed 08:44:00 AM 45.7977 168.7068 77° East 574 661 32,000  Level FlightAware Transoceanic
Wed 08:45:00 AM 45.8325 168.9217 77° East 574 661 32,000  Level FlightAware Transoceanic
Wed 08:46:00 AM 45.8668 169.1368 77° East 574 661 32,000 667 Level FlightAware Transoceanic
Wed 08:46:30 AM 45.8667 169.1667 77° East 574 661 33,000  Climbing Oakland Oceanic (ODAPS)
Wed 08:47:00 AM 45.9007 169.3522 77° East 574 661 32,000 -667 Descending FlightAware Transoceanic
Wed 08:48:00 AM 45.9342 169.5679 77° East 574 661 32,000  Level FlightAware Transoceanic
Wed 08:49:00 AM 45.9673 169.7838 78° East 574 661 32,000  Level FlightAware Transoceanic
Wed 08:50:00 AM 46.0000 170.0000 86° East 574 661 32,000 857 Level FlightAware Transoceanic
Wed 08:50:10 AM 46.0000 170.0000 86° East 581 669 33,000 1,463 Climbing Oakland Oceanic (ODAPS)
Wed 08:50:41 AM 46.0000 170.1167 86° East 583 671 33,000 -1,200 Level Oakland Oceanic (ODAPS)
Wed 08:51:00 AM 46.0095 170.2217 87° East 574 661 32,000  Descending FlightAware Transoceanic
Wed 08:52:00 AM 46.0185 170.4434 87° East 574 661 33,000 500 Climbing FlightAware Transoceanic
Wed 08:53:00 AM 46.0271 170.6653 87° East 574 661 33,000  Level FlightAware Transoceanic
Wed 08:54:00 AM 46.0353 170.8871 87° East 574 661 33,000  Level FlightAware Transoceanic
Wed 08:55:00 AM 46.0431 171.1091 87° East 574 661 33,000  Level FlightAware Transoceanic
Wed 08:56:00 AM 46.0524 171.3931 87° East 581 669 33,000  Level FlightAware Transoceanic
Wed 08:57:00 AM 46.0581 171.7232 88° East 583 671 33,000  Level FlightAware Transoceanic
Wed 08:58:00 AM 46.0645 171.9530 88° East 583 671 33,000  Level FlightAware Transoceanic
Wed 08:59:00 AM 46.0705 172.1828 88° East 583 671 33,000  Level FlightAware Transoceanic
Wed 09:00:00 AM 46.0761 172.4127 88° East 583 671 33,000  Level FlightAware Transoceanic
Wed 09:00:12 AM 46.0833 172.3500 88° East 584 672 33,000  Level Oakland Oceanic (ODAPS)
Wed 09:01:00 AM 46.0812 172.6426 88° East 583 671 33,000  Level FlightAware Transoceanic
Wed 09:02:00 AM 46.0858 172.8725 88° East 583 671 33,000  Level FlightAware Transoceanic
Wed 09:03:00 AM 46.0899 173.1025 89° East 583 671 33,000  Level FlightAware Transoceanic
Wed 09:04:00 AM 46.0936 173.3326 89° East 583 671 33,000  Level FlightAware Transoceanic
Wed 09:05:00 AM 46.0969 173.5626 89° East 583 671 33,000  Level FlightAware Transoceanic
Wed 09:06:00 AM 46.1062 173.7415 89° East 584 672 33,000  Level FlightAware Transoceanic
Wed 09:07:00 AM 46.1083 173.9735 89° East 584 672 33,000  Level FlightAware Transoceanic
Wed 09:08:00 AM 46.1100 174.2056 89° East 584 672 33,000  Level FlightAware Transoceanic
Wed 09:09:00 AM 46.1113 174.4376 90° East 584 672 33,000  Level FlightAware Transoceanic
Wed 09:10:00 AM 46.1120 174.6696 90° East 584 672 33,000  Level FlightAware Transoceanic
Wed 09:11:00 AM 46.1123 174.9017 90° East 584 672 33,000  Level FlightAware Transoceanic
Wed 09:12:00 AM 46.1121 175.1337 90° East 584 672 33,000  Level FlightAware Transoceanic
Wed 09:13:00 AM 46.1115 175.3658 90° East 584 672 33,000  Level FlightAware Transoceanic
Wed 09:14:00 AM 46.1104 175.5978 90° East 584 672 33,000  Level FlightAware Transoceanic
Wed 09:14:03 AM 46.1000 175.5667 90° East 585 673 33,000  Level Oakland Oceanic (ODAPS)
Wed 09:15:00 AM 46.1088 175.8299 91° East 584 672 33,000  Level FlightAware Transoceanic
Wed 09:16:00 AM 46.1067 176.0619 91° East 584 672 33,000  Level FlightAware Transoceanic
Wed 09:17:00 AM 46.1042 176.2939 91° East 584 672 33,000  Level FlightAware Transoceanic
Wed 09:18:00 AM 46.1012 176.5259 91° East 584 672 33,000  Level FlightAware Transoceanic
Wed 09:19:00 AM 46.0977 176.7578 91° East 584 672 33,000  Level FlightAware Transoceanic
Wed 09:20:00 AM 46.0869 176.9682 91° East 585 673 33,000  Level FlightAware Transoceanic
Wed 09:21:00 AM 46.0831 177.2017 91° East 585 673 33,000  Level FlightAware Transoceanic
Wed 09:22:00 AM 46.0788 177.4352 92° East 585 673 33,000  Level FlightAware Transoceanic
Wed 09:23:00 AM 46.0740 177.6686 92° East 585 673 33,000  Level FlightAware Transoceanic
Wed 09:24:00 AM 46.0687 177.9020 92° East 585 673 33,000  Level FlightAware Transoceanic
Wed 09:25:00 AM 46.0630 178.1354 92° East 585 673 33,000  Level FlightAware Transoceanic
Wed 09:26:00 AM 46.0568 178.3687 92° East 585 673 33,000  Level FlightAware Transoceanic
Wed 09:27:00 AM 46.0501 178.6019 92° East 585 673 33,000  Level FlightAware Transoceanic
Wed 09:27:55 AM 46.0500 178.8167 93° East 583 671 33,000  Level Oakland Oceanic (ODAPS)
Wed 09:28:00 AM 46.0429 178.8351 93° East 585 673 33,000  Level FlightAware Transoceanic
Wed 09:29:00 AM 46.0353 179.0682 93° East 585 673 33,000  Level FlightAware Transoceanic
Wed 09:30:00 AM 46.0272 179.3013 93° East 585 673 33,000  Level FlightAware Transoceanic
Wed 09:31:00 AM 46.0186 179.5343 93° East 585 673 33,000  Level FlightAware Transoceanic
Wed 09:32:00 AM 46.0095 179.7672 93° East 585 673 33,000  Level FlightAware Transoceanic
Wed 09:33:00 AM 46.0000 -180.0000 102° East 585 673 33,000  Level FlightAware Transoceanic
Wed 09:33:12 AM 46.0000 180.0000 102° East 585 673 33,000  Level Oakland Oceanic (ODAPS)
Wed 09:34:00 AM 45.9667 -179.7803 102° East 583 671 33,000  Level FlightAware Transoceanic
Wed 09:35:00 AM 45.9331 -179.5609 103° East 583 671 33,000  Level FlightAware Transoceanic
Wed 09:36:00 AM 45.8989 -179.3418 103° East 583 671 33,000  Level FlightAware Transoceanic
Wed 09:37:00 AM 45.8644 -179.1229 103° East 583 671 33,000  Level FlightAware Transoceanic
Wed 09:38:00 AM 45.8295 -178.9043 103° East 583 671 33,000  Level FlightAware Transoceanic
Wed 09:39:00 AM 45.7846 -178.6278 103° East 585 673 33,000  Level FlightAware Transoceanic
Wed 09:40:00 AM 45.7472 -178.4001 103° East 585 673 33,000  Level FlightAware Transoceanic
Wed 09:41:00 AM 45.7092 -178.1728 104° East 585 673 33,000  Level FlightAware Transoceanic
Wed 09:41:48 AM 45.6833 -177.9667 104° East 594 684 33,000  Level Oakland Oceanic (ODAPS)
Wed 09:42:00 AM 45.6708 -177.9458 104° East 585 673 33,000  Level FlightAware Transoceanic
Wed 09:43:00 AM 45.6320 -177.7190 104° East 585 673 33,000  Level FlightAware Transoceanic
Wed 09:44:00 AM 45.5927 -177.4926 104° East 585 673 33,000  Level FlightAware Transoceanic
Wed 09:45:00 AM 45.5530 -177.2665 104° East 585 673 33,000  Level FlightAware Transoceanic
Wed 09:46:00 AM 45.5128 -177.0408 104° East 585 673 33,000  Level FlightAware Transoceanic
Wed 09:47:00 AM 45.4722 -176.8153 104° East 585 673 33,000  Level FlightAware Transoceanic
Wed 09:48:00 AM 45.4346 -176.5686 105° East 594 684 33,000  Level FlightAware Transoceanic
Wed 09:49:00 AM 45.3915 -176.3369 105° East 594 684 33,000  Level FlightAware Transoceanic
Wed 09:50:00 AM 45.3479 -176.1054 105° East 594 684 33,000  Level FlightAware Transoceanic
Wed 09:51:00 AM 45.3039 -175.8743 105° East 594 684 33,000  Level FlightAware Transoceanic
Wed 09:52:00 AM 45.2594 -175.6436 105° East 594 684 33,000  Level FlightAware Transoceanic
Wed 09:53:00 AM 45.2144 -175.4133 106° East 594 684 33,000  Level FlightAware Transoceanic
Wed 09:54:00 AM 45.1690 -175.1833 106° East 594 684 33,000  Level FlightAware Transoceanic
Wed 09:55:00 AM 45.1231 -174.9537 106° East 594 684 33,000  Level FlightAware Transoceanic
Wed 09:55:39 AM 45.0833 -174.8000 106° East 595 685 33,000  Level Oakland Oceanic (ODAPS)
Wed 09:56:00 AM 45.0768 -174.7244 106° East 594 684 33,000  Level FlightAware Transoceanic
Wed 09:57:00 AM 45.0299 -174.4956 106° East 594 684 33,000  Level FlightAware Transoceanic
Wed 09:58:00 AM 44.9827 -174.2671 106° East 594 684 33,000  Level FlightAware Transoceanic
Wed 09:59:00 AM 44.9350 -174.0390 107° East 594 684 33,000  Level FlightAware Transoceanic
Wed 10:00:00 AM 44.8868 -173.8112 107° East 594 684 33,000  Level FlightAware Transoceanic
Wed 10:01:00 AM 44.8438 -173.6411 107° East 595 685 33,000  Level FlightAware Transoceanic
Wed 10:02:00 AM 44.7944 -173.4105 107° East 595 685 33,000  Level FlightAware Transoceanic
Wed 10:03:00 AM 44.7447 -173.1803 107° East 595 685 33,000  Level FlightAware Transoceanic
Wed 10:04:00 AM 44.6944 -172.9505 107° East 595 685 33,000  Level FlightAware Transoceanic
Wed 10:05:00 AM 44.6437 -172.7210 107° East 595 685 33,000  Level FlightAware Transoceanic
Wed 10:06:00 AM 44.5925 -172.4920 108° East 595 685 33,000  Level FlightAware Transoceanic
Wed 10:07:00 AM 44.5409 -172.2634 108° East 595 685 33,000  Level FlightAware Transoceanic
Wed 10:08:00 AM 44.4889 -172.0352 108° East 595 685 33,000  Level FlightAware Transoceanic
Wed 10:09:00 AM 44.4363 -171.8074 108° East 595 685 33,000  Level FlightAware Transoceanic
Wed 10:09:33 AM 44.4167 -171.7000 108° East 589 678 33,000  Level Oakland Oceanic (ODAPS)
Wed 10:10:00 AM 44.3834 -171.5800 108° East 595 685 33,000  Level FlightAware Transoceanic
Wed 10:11:00 AM 44.3299 -171.3530 108° East 595 685 33,000  Level FlightAware Transoceanic
Wed 10:12:00 AM 44.2761 -171.1265 108° East 595 685 33,000  Level FlightAware Transoceanic
Wed 10:13:00 AM 44.2217 -170.9003 109° East 595 685 33,000  Level FlightAware Transoceanic
Wed 10:14:00 AM 44.1670 -170.6746 109° East 595 685 33,000  Level FlightAware Transoceanic
Wed 10:15:00 AM 44.1065 -170.4227 109° East 589 678 33,000  Level FlightAware Transoceanic
Wed 10:16:00 AM 44.0535 -170.2112 109° East 589 678 33,000  Level FlightAware Transoceanic
Wed 10:17:00 AM 44.0000 -170.0000 102° East 589 678 33,000  Level FlightAware Transoceanic
Wed 10:17:35 AM 44.0000 -170.0000 102° East 558 642 33,000  Level Oakland Oceanic (ODAPS)
Wed 10:18:00 AM 43.9693 -169.7980 102° East 589 678 33,000  Level FlightAware Transoceanic
Wed 10:19:00 AM 43.9383 -169.5962 102° East 589 678 33,000  Level FlightAware Transoceanic
Wed 10:20:00 AM 43.9069 -169.3946 102° East 589 678 33,000  Level FlightAware Transoceanic
Wed 10:21:00 AM 43.8752 -169.1932 102° East 589 678 33,000  Level FlightAware Transoceanic
Wed 10:22:00 AM 43.8431 -168.9920 103° East 589 678 33,000  Level FlightAware Transoceanic
Wed 10:23:00 AM 43.8027 -168.7419 103° East 558 642 33,000  Level FlightAware Transoceanic
Wed 10:23:24 AM 43.8000 -168.7500 103° East 544 626 33,000  Level Oakland Oceanic (ODAPS)
Wed 10:24:00 AM 43.7685 -168.5330 103° East 558 642 33,000  Level FlightAware Transoceanic
Wed 10:25:00 AM 43.7339 -168.3244 103° East 558 642 33,000  Level FlightAware Transoceanic
Wed 10:26:00 AM 43.6989 -168.1160 103° East 558 642 33,000  Level FlightAware Transoceanic
Wed 10:27:00 AM 43.6635 -167.9078 103° East 558 642 33,000  Level FlightAware Transoceanic
Wed 10:28:00 AM 43.6278 -167.6999 103° East 558 642 33,000  Level FlightAware Transoceanic
Wed 10:29:00 AM 43.5944 -167.5276 104° East 544 626 33,000  Level FlightAware Transoceanic
Wed 10:30:00 AM 43.5588 -167.3247 104° East 544 626 33,000  Level FlightAware Transoceanic
Wed 10:31:00 AM 43.5230 -167.1221 104° East 544 626 33,000  Level FlightAware Transoceanic
Wed 10:32:00 AM 43.4867 -166.9196 104° East 544 626 33,000  Level FlightAware Transoceanic
Wed 10:33:00 AM 43.4501 -166.7175 104° East 544 626 33,000  Level FlightAware Transoceanic
Wed 10:34:00 AM 43.4132 -166.5155 104° East 544 626 33,000  Level FlightAware Transoceanic
Wed 10:35:00 AM 43.3758 -166.3139 104° East 544 626 33,000  Level FlightAware Transoceanic
Wed 10:36:00 AM 43.3382 -166.1124 104° East 544 626 33,000  Level FlightAware Transoceanic
Wed 10:37:00 AM 43.3001 -165.9112 105° East 544 626 33,000 2,053 Level FlightAware Transoceanic
Wed 10:37:16 AM 43.3167 -165.9833 105° East 526 605 35,600  Climbing Oakland Oceanic (ODAPS)
Wed 10:38:00 AM 43.2618 -165.7103 105° East 544 626 33,000 -1,500 Descending FlightAware Transoceanic
Wed 10:39:00 AM 43.2230 -165.5096 105° East 544 626 33,000  Level FlightAware Transoceanic
Wed 10:40:00 AM 43.1840 -165.3092 105° East 544 626 33,000 1,714 Level FlightAware Transoceanic
Wed 10:40:45 AM 43.1833 -165.3167 105° East 526 605 36,000  Climbing Oakland Oceanic (ODAPS)
Wed 10:41:00 AM 43.1445 -165.1091 105° East 544 626 33,000 -2,400 Descending FlightAware Transoceanic
Wed 10:42:00 AM 43.1048 -164.9091 105° East 544 626 33,000 1,300 Level FlightAware Transoceanic
Wed 10:43:00 AM 43.0937 -164.8425 105° East 526 605 35,600 1,300 Climbing FlightAware Transoceanic
Wed 10:44:00 AM 43.0555 -164.6531 106° East 526 605 35,600  Level FlightAware Transoceanic
Wed 10:45:00 AM 43.0169 -164.4640 106° East 526 605 35,600  Level FlightAware Transoceanic
Wed 10:46:00 AM 42.9780 -164.2752 106° East 526 605 35,600 200 Level FlightAware Transoceanic
Wed 10:47:00 AM 42.9107 -163.9688 106° East 526 605 36,000 200 Climbing FlightAware Transoceanic
Wed 10:48:00 AM 42.8705 -163.7772 106° East 526 605 36,000  Level FlightAware Transoceanic
Wed 10:49:00 AM 42.8299 -163.5859 106° East 526 605 36,000  Level FlightAware Transoceanic
Wed 10:50:00 AM 42.7891 -163.3948 106° East 526 605 36,000  Level FlightAware Transoceanic
Wed 10:51:00 AM 42.7479 -163.2040 106° East 526 605 36,000  Level FlightAware Transoceanic
Wed 10:51:10 AM 42.7667 -163.3167 106° East 528 608 36,000  Level Oakland Oceanic (ODAPS)
Wed 10:52:00 AM 42.7064 -163.0134 107° East 526 605 36,000  Level FlightAware Transoceanic
Wed 10:53:00 AM 42.6645 -162.8231 107° East 526 605 36,000  Level FlightAware Transoceanic
Wed 10:54:00 AM 42.6224 -162.6331 107° East 526 605 36,000  Level FlightAware Transoceanic
Wed 10:55:00 AM 42.5799 -162.4433 107° East 526 605 36,000  Level FlightAware Transoceanic
Wed 10:56:00 AM 42.5372 -162.2538 107° East 526 605 36,000  Level FlightAware Transoceanic
Wed 10:57:00 AM 42.5218 -162.2021 107° East 528 608 36,000  Level FlightAware Transoceanic
Wed 10:58:00 AM 42.4799 -162.0172 107° East 528 608 36,000  Level FlightAware Transoceanic
Wed 10:59:00 AM 42.4377 -161.8326 107° East 528 608 36,000  Level FlightAware Transoceanic
Wed 11:00:00 AM 42.3953 -161.6482 107° East 528 608 36,000  Level FlightAware Transoceanic
Wed 11:01:00 AM 42.3525 -161.4641 108° East 528 608 36,000  Level FlightAware Transoceanic
Wed 11:02:00 AM 42.3095 -161.2802 108° East 528 608 36,000  Level FlightAware Transoceanic
Wed 11:03:00 AM 42.2662 -161.0965 108° East 528 608 36,000  Level FlightAware Transoceanic
Wed 11:04:00 AM 42.2225 -160.9131 108° East 528 608 36,000  Level FlightAware Transoceanic
Wed 11:05:00 AM 42.1786 -160.7300 108° East 528 608 36,000  Level FlightAware Transoceanic
Wed 11:05:20 AM 42.1833 -160.7500 108° East 508 585 36,000  Level Oakland Oceanic (ODAPS)
Wed 11:06:00 AM 42.1344 -160.5471 108° East 528 608 36,000  Level FlightAware Transoceanic
Wed 11:07:00 AM 42.0899 -160.3645 108° East 528 608 36,000  Level FlightAware Transoceanic
Wed 11:08:00 AM 42.0451 -160.1821 108° East 528 608 36,000  Level FlightAware Transoceanic
Wed 11:09:00 AM 42.0000 -160.0000 94° East 528 608 36,000  Level FlightAware Transoceanic
Wed 11:09:21 AM 42.0000 -160.0000 94° East 521 600 36,000  Level Oakland Oceanic (ODAPS)
Wed 11:10:00 AM 41.9888 -159.8013 94° East 528 608 36,000  Level FlightAware Transoceanic
Wed 11:11:00 AM 41.9777 -159.6104 95° East 508 585 36,000  Level FlightAware Transoceanic
Wed 11:12:00 AM 41.9661 -159.4157 95° East 508 585 36,000  Level FlightAware Transoceanic
Wed 11:13:00 AM 41.9541 -159.2211 95° East 508 585 36,000  Level FlightAware Transoceanic
Wed 11:14:00 AM 41.9418 -159.0265 95° East 508 585 36,000  Level FlightAware Transoceanic
Wed 11:15:00 AM 41.9292 -158.8320 95° East 521 600 36,000  Level FlightAware Transoceanic
Wed 11:16:00 AM 41.9163 -158.6376 95° East 521 600 36,000  Level FlightAware Transoceanic
Wed 11:17:00 AM 41.9030 -158.4433 95° East 521 600 36,000  Level FlightAware Transoceanic
Wed 11:18:00 AM 41.8894 -158.2491 95° East 521 600 36,000  Level FlightAware Transoceanic
Wed 11:18:53 AM 41.8833 -158.1667 95° East 521 600 36,000  Level Oakland Oceanic (ODAPS)
Wed 11:19:00 AM 41.8755 -158.0549 96° East 521 600 36,000  Level FlightAware Transoceanic
Wed 11:20:00 AM 41.8612 -157.8608 96° East 521 600 36,000  Level FlightAware Transoceanic
Wed 11:21:00 AM 41.8466 -157.6668 96° East 521 600 36,000  Level FlightAware Transoceanic
Wed 11:22:00 AM 41.8317 -157.4729 96° East 521 600 36,000  Level FlightAware Transoceanic
Wed 11:23:00 AM 41.8165 -157.2791 96° East 521 600 36,000  Level FlightAware Transoceanic
Wed 11:24:00 AM 41.8009 -157.0854 96° East 521 600 36,000  Level FlightAware Transoceanic
Wed 11:25:00 AM 41.7950 -157.0147 96° East 521 600 36,000  Level FlightAware Transoceanic
Wed 11:26:00 AM 41.7792 -156.8231 96° East 521 600 36,000  Level FlightAware Transoceanic
Wed 11:27:00 AM 41.7630 -156.6315 97° East 521 600 36,000  Level FlightAware Transoceanic
Wed 11:28:00 AM 41.7465 -156.4400 97° East 521 600 36,000  Level FlightAware Transoceanic
Wed 11:29:00 AM 41.7298 -156.2486 97° East 521 600 36,000  Level FlightAware Transoceanic
Wed 11:30:00 AM 41.7126 -156.0574 97° East 521 600 36,000  Level FlightAware Transoceanic
Wed 11:31:00 AM 41.6952 -155.8662 97° East 521 600 36,000  Level FlightAware Transoceanic
Wed 11:32:00 AM 41.6775 -155.6751 97° East 521 600 36,000  Level FlightAware Transoceanic
Wed 11:32:46 AM 41.6667 -155.6000 97° East 521 600 36,000  Level Oakland Oceanic (ODAPS)
Wed 11:33:00 AM 41.6594 -155.4842 97° East 521 600 36,000  Level FlightAware Transoceanic
Wed 11:34:00 AM 41.6410 -155.2933 97° East 521 600 36,000  Level FlightAware Transoceanic
Wed 11:35:00 AM 41.6223 -155.1026 98° East 521 600 36,000  Level FlightAware Transoceanic
Wed 11:36:00 AM 41.6033 -154.9119 98° East 521 600 36,000  Level FlightAware Transoceanic
Wed 11:37:00 AM 41.5840 -154.7214 98° East 521 600 36,000  Level FlightAware Transoceanic
Wed 11:38:00 AM 41.5644 -154.5310 98° East 521 600 36,000  Level FlightAware Transoceanic
Wed 11:39:00 AM 41.5511 -154.4323 98° East 521 600 36,000  Level FlightAware Transoceanic
Wed 11:40:00 AM 41.5307 -154.2381 98° East 521 600 36,000  Level FlightAware Transoceanic
Wed 11:41:00 AM 41.5100 -154.0440 98° East 521 600 36,000  Level FlightAware Transoceanic
Wed 11:42:00 AM 41.4889 -153.8501 98° East 521 600 36,000  Level FlightAware Transoceanic
Wed 11:43:00 AM 41.4675 -153.6562 98° East 521 600 36,000  Level FlightAware Transoceanic
Wed 11:44:00 AM 41.4458 -153.4626 99° East 521 600 36,000  Level FlightAware Transoceanic
Wed 11:45:00 AM 41.4238 -153.2690 99° East 521 600 36,000  Level FlightAware Transoceanic
Wed 11:46:00 AM 41.4014 -153.0756 99° East 521 600 36,000  Level FlightAware Transoceanic
Wed 11:46:38 AM 41.3833 -152.9333 99° East 533 613 36,000  Level Oakland Oceanic (ODAPS)
Wed 11:47:00 AM 41.3787 -152.8823 99° East 521 600 36,000  Level FlightAware Transoceanic
Wed 11:48:00 AM 41.3557 -152.6891 99° East 521 600 36,000  Level FlightAware Transoceanic
Wed 11:49:00 AM 41.3324 -152.4961 99° East 521 600 36,000  Level FlightAware Transoceanic
Wed 11:50:00 AM 41.3088 -152.3032 99° East 521 600 36,000  Level FlightAware Transoceanic
Wed 11:51:00 AM 41.2848 -152.1104 99° East 521 600 36,000  Level FlightAware Transoceanic
Wed 11:52:00 AM 41.2638 -151.9518 100° East 533 613 36,000  Level FlightAware Transoceanic
Wed 11:53:00 AM 41.2389 -151.7559 100° East 533 613 36,000  Level FlightAware Transoceanic
Wed 11:54:00 AM 41.2137 -151.5602 100° East 533 613 36,000  Level FlightAware Transoceanic
Wed 11:55:00 AM 41.1881 -151.3646 100° East 533 613 36,000  Level FlightAware Transoceanic
Wed 11:56:00 AM 41.1623 -151.1692 100° East 533 613 36,000  Level FlightAware Transoceanic
Wed 11:57:00 AM 41.1360 -150.9739 100° East 533 613 36,000  Level FlightAware Transoceanic
Wed 11:58:00 AM 41.1095 -150.7788 100° East 533 613 36,000  Level FlightAware Transoceanic
Wed 11:59:00 AM 41.0826 -150.5839 100° East 533 613 36,000  Level FlightAware Transoceanic
Wed 12:00:00 PM 41.0554 -150.3891 101° East 533 613 36,000  Level FlightAware Transoceanic
Wed 12:00:30 PM 41.0333 -150.2667 99° East 543 625 36,000  Level Oakland Oceanic (ODAPS)
Wed 12:01:00 PM 41.0279 -150.1945 101° East 533 613 36,000  Level FlightAware Transoceanic
Wed 12:01:56 PM 41.0000 -150.0000 87° East 525 604 36,000  Level Oakland Oceanic (ODAPS)
Wed 12:02:00 PM 41.0000 -150.0000 87° East 533 613 36,000  Level FlightAware Transoceanic
Wed 12:03:00 PM 41.0081 -149.8081 87° East 533 613 36,000  Level FlightAware Transoceanic
Wed 12:04:00 PM 41.0160 -149.6161 87° East 533 613 36,000  Level FlightAware Transoceanic
Wed 12:05:00 PM 41.0235 -149.4241 87° East 533 613 36,000  Level FlightAware Transoceanic
Wed 12:06:00 PM 41.0307 -149.2321 87° East 533 613 36,000  Level FlightAware Transoceanic
Wed 12:07:00 PM 41.0369 -149.0581 87° East 543 625 36,000  Level FlightAware Transoceanic
Wed 12:08:00 PM 41.0441 -148.8479 87° East 525 604 36,000  Level FlightAware Transoceanic
Wed 12:09:00 PM 41.0504 -148.6557 88° East 525 604 36,000  Level FlightAware Transoceanic
Wed 12:10:00 PM 41.0563 -148.4635 88° East 525 604 36,000  Level FlightAware Transoceanic
Wed 12:11:00 PM 41.0619 -148.2713 88° East 525 604 36,000  Level FlightAware Transoceanic
Wed 12:12:00 PM 41.0672 -148.0790 88° East 525 604 36,000  Level FlightAware Transoceanic
Wed 12:13:00 PM 41.0722 -147.8867 88° East 525 604 36,000  Level FlightAware Transoceanic
Wed 12:14:00 PM 41.0768 -147.6944 88° East 525 604 36,000  Level FlightAware Transoceanic
Wed 12:14:22 PM 41.0833 -147.5333 88° East 527 606 36,000  Level Oakland Oceanic (ODAPS)
Wed 12:15:00 PM 41.0811 -147.5021 88° East 525 604 36,000  Level FlightAware Transoceanic
Wed 12:16:00 PM 41.0851 -147.3097 88° East 525 604 36,000  Level FlightAware Transoceanic
Wed 12:17:00 PM 41.0888 -147.1173 89° East 525 604 36,000  Level FlightAware Transoceanic
Wed 12:18:00 PM 41.0922 -146.9249 89° East 525 604 36,000  Level FlightAware Transoceanic
Wed 12:19:00 PM 41.0952 -146.7324 89° East 525 604 36,000  Level FlightAware Transoceanic
Wed 12:20:00 PM 41.1025 -146.3740 89° East 527 606 36,000  Level FlightAware Transoceanic
Wed 12:21:00 PM 41.1045 -146.1807 89° East 527 606 36,000  Level FlightAware Transoceanic
Wed 12:22:00 PM 41.1063 -145.9874 89° East 527 606 36,000  Level FlightAware Transoceanic
Wed 12:23:00 PM 41.1077 -145.7941 90° East 527 606 36,000  Level FlightAware Transoceanic
Wed 12:24:00 PM 41.1088 -145.6008 90° East 527 606 36,000  Level FlightAware Transoceanic
Wed 12:25:00 PM 41.1096 -145.4074 90° East 527 606 36,000  Level FlightAware Transoceanic
Wed 12:26:00 PM 41.1100 -145.2141 90° East 527 606 36,000  Level FlightAware Transoceanic
Wed 12:27:00 PM 41.1101 -145.0208 90° East 527 606 36,000  Level FlightAware Transoceanic
Wed 12:28:00 PM 41.1099 -144.8275 90° East 527 606 36,000  Level FlightAware Transoceanic
Wed 12:28:15 PM 41.1000 -144.8167 90° East 519 597 36,000  Level Oakland Oceanic (ODAPS)
Wed 12:29:00 PM 41.1094 -144.6342 90° East 527 606 36,000  Level FlightAware Transoceanic
Wed 12:30:00 PM 41.1086 -144.4408 90° East 527 606 36,000  Level FlightAware Transoceanic
Wed 12:31:00 PM 41.1074 -144.2475 91° East 527 606 36,000  Level FlightAware Transoceanic
Wed 12:32:00 PM 41.1059 -144.0542 91° East 527 606 36,000  Level FlightAware Transoceanic
Wed 12:33:00 PM 41.1041 -143.8609 91° East 527 606 36,000  Level FlightAware Transoceanic
Wed 12:34:00 PM 41.0943 -143.6596 91° East 519 597 36,000  Level FlightAware Transoceanic
Wed 12:35:00 PM 41.0922 -143.4667 91° East 519 597 36,000  Level FlightAware Transoceanic
Wed 12:36:00 PM 41.0898 -143.2739 91° East 519 597 36,000  Level FlightAware Transoceanic
Wed 12:37:00 PM 41.0871 -143.0811 91° East 519 597 36,000  Level FlightAware Transoceanic
Wed 12:38:00 PM 41.0841 -142.8884 91° East 519 597 36,000  Level FlightAware Transoceanic
Wed 12:39:00 PM 41.0807 -142.6956 91° East 519 597 36,000  Level FlightAware Transoceanic
Wed 12:40:00 PM 41.0770 -142.5029 92° East 519 597 36,000  Level FlightAware Transoceanic
Wed 12:41:00 PM 41.0730 -142.3102 92° East 519 597 36,000 59 Level FlightAware Transoceanic
Wed 12:41:41 PM 41.0833 -142.3333 92° East 499 574 36,100  Climbing Oakland Oceanic (ODAPS)
Wed 12:42:00 PM 41.0687 -142.1175 92° East 519 597 36,000 1,615 Descending FlightAware Transoceanic
Wed 12:42:07 PM 41.0833 -142.2333 92° East 498 573 36,800  Climbing Oakland Oceanic (ODAPS)
Wed 12:43:00 PM 41.0641 -141.9248 92° East 519 597 36,000 -425 Descending FlightAware Transoceanic
Wed 12:44:00 PM 41.0591 -141.7321 92° East 519 597 36,000  Level FlightAware Transoceanic
Wed 12:45:00 PM 41.0538 -141.5396 92° East 519 597 36,000  Level FlightAware Transoceanic
Wed 12:46:00 PM 41.0482 -141.3470 92° East 519 597 36,000 50 Level FlightAware Transoceanic
Wed 12:47:00 PM 41.0507 -141.2557 93° East 499 574 36,100 400 Climbing FlightAware Transoceanic
Wed 12:48:00 PM 41.0471 -141.1160 93° East 498 573 36,800 350 Climbing FlightAware Transoceanic
Wed 12:49:00 PM 41.0400 -140.9299 93° East 498 573 36,800  Level FlightAware Transoceanic
Wed 12:50:00 PM 41.0326 -140.7438 93° East 498 573 36,800  Level FlightAware Transoceanic
Wed 12:51:00 PM 41.0249 -140.5578 93° East 498 573 36,800  Level FlightAware Transoceanic
Wed 12:52:00 PM 41.0169 -140.3718 93° East 498 573 36,800  Level FlightAware Transoceanic
Wed 12:53:00 PM 41.0086 -140.1859 93° East 498 573 36,800  Level FlightAware Transoceanic
Wed 12:54:00 PM 41.0000 -140.0000 94° East 498 573 36,800 626 Level FlightAware Transoceanic
Wed 12:54:55 PM 41.0000 -140.0000 94° East 494 568 38,000  Climbing Oakland Oceanic (ODAPS)
Wed 12:55:00 PM 40.9896 -139.8159 94° East 498 573 36,800  Descending FlightAware Transoceanic
Wed 12:55:59 PM 40.9833 -139.7833 94° East 501 577 38,000  Climbing Oakland Oceanic (ODAPS)
Wed 12:56:00 PM 40.9789 -139.6318 94° East 498 573 36,800 -1,180 Descending FlightAware Transoceanic
Wed 12:57:00 PM 40.9679 -139.4478 95° East 498 573 36,800  Level FlightAware Transoceanic
Wed 12:58:00 PM 40.9566 -139.2638 95° East 498 573 36,800  Level FlightAware Transoceanic
Wed 12:59:00 PM 40.9450 -139.0799 95° East 498 573 36,800  Level FlightAware Transoceanic
Wed 01:00:00 PM 40.9332 -138.8961 95° East 498 573 36,800 600 Level FlightAware Transoceanic
Wed 01:01:00 PM 40.9345 -138.9158 95° East 494 568 38,000 600 Climbing FlightAware Transoceanic
Wed 01:02:00 PM 40.9152 -138.6836 95° East 501 577 38,000  Level FlightAware Transoceanic
Wed 01:03:00 PM 40.9028 -138.5005 95° East 501 577 38,000  Level FlightAware Transoceanic
Wed 01:04:00 PM 40.8901 -138.3175 95° East 501 577 38,000  Level FlightAware Transoceanic
Wed 01:05:00 PM 40.8772 -138.1346 95° East 501 577 38,000  Level FlightAware Transoceanic
Wed 01:06:00 PM 40.8640 -137.9517 96° East 501 577 38,000  Level FlightAware Transoceanic
Wed 01:07:00 PM 40.8504 -137.7689 96° East 501 577 38,000  Level FlightAware Transoceanic
Wed 01:08:00 PM 40.8366 -137.5862 96° East 501 577 38,000  Level FlightAware Transoceanic
Wed 01:09:00 PM 40.8225 -137.4036 96° East 501 577 38,000  Level FlightAware Transoceanic
Wed 01:09:52 PM 40.8167 -137.3667 96° East 498 573 38,000  Level Oakland Oceanic (ODAPS)
Wed 01:10:00 PM 40.8081 -137.2211 96° East 501 577 38,000  Level FlightAware Transoceanic
Wed 01:11:00 PM 40.7934 -137.0386 96° East 501 577 38,000  Level FlightAware Transoceanic
Wed 01:12:00 PM 40.7785 -136.8562 96° East 501 577 38,000  Level FlightAware Transoceanic
Wed 01:13:00 PM 40.7632 -136.6739 96° East 501 577 38,000  Level FlightAware Transoceanic
Wed 01:14:00 PM 40.7477 -136.4917 96° East 501 577 38,000  Level FlightAware Transoceanic
Wed 01:15:00 PM 40.7318 -136.3095 97° East 501 577 38,000  Level FlightAware Transoceanic
Wed 01:16:00 PM 40.7266 -136.2781 97° East 498 573 38,000  Level FlightAware Transoceanic
Wed 01:17:00 PM 40.7105 -136.0970 97° East 498 573 38,000  Level FlightAware Transoceanic
Wed 01:18:00 PM 40.6942 -135.9160 97° East 498 573 38,000  Level FlightAware Transoceanic
Wed 01:19:00 PM 40.6777 -135.7350 97° East 498 573 38,000  Level FlightAware Transoceanic
Wed 01:20:00 PM 40.6608 -135.5542 97° East 498 573 38,000  Level FlightAware Transoceanic
Wed 01:21:00 PM 40.6437 -135.3734 97° East 498 573 38,000  Level FlightAware Transoceanic
Wed 01:22:00 PM 40.6263 -135.1927 97° East 498 573 38,000  Level FlightAware Transoceanic
Wed 01:23:00 PM 40.6085 -135.0121 97° East 498 573 38,000  Level FlightAware Transoceanic
Wed 01:23:44 PM 40.6000 -134.9167 97° East 502 578 38,000  Level Oakland Oceanic (ODAPS)
Wed 01:24:00 PM 40.5906 -134.8316 98° East 498 573 38,000  Level FlightAware Transoceanic
Wed 01:25:00 PM 40.5723 -134.6513 98° East 498 573 38,000  Level FlightAware Transoceanic
Wed 01:26:00 PM 40.5537 -134.4710 98° East 498 573 38,000  Level FlightAware Transoceanic
Wed 01:27:00 PM 40.5349 -134.2908 98° East 498 573 38,000  Level FlightAware Transoceanic
Wed 01:28:00 PM 40.5158 -134.1107 98° East 498 573 38,000  Level FlightAware Transoceanic
Wed 01:29:00 PM 40.4964 -133.9307 98° East 498 573 38,000  Level FlightAware Transoceanic
Wed 01:30:00 PM 40.4847 -133.8167 98° East 502 578 38,000  Level FlightAware Transoceanic
Wed 01:31:00 PM 40.4645 -133.6338 98° East 502 578 38,000  Level FlightAware Transoceanic
Wed 01:32:00 PM 40.4440 -133.4510 98° East 502 578 38,000  Level FlightAware Transoceanic
Wed 01:33:00 PM 40.4232 -133.2682 99° East 502 578 38,000  Level FlightAware Transoceanic
Wed 01:34:00 PM 40.4021 -133.0856 99° East 502 578 38,000  Level FlightAware Transoceanic
Wed 01:35:00 PM 40.3807 -132.9031 99° East 502 578 38,000  Level FlightAware Transoceanic
Wed 01:36:00 PM 40.3591 -132.7208 99° East 502 578 38,000  Level FlightAware Transoceanic
Wed 01:37:00 PM 40.3371 -132.5385 99° East 502 578 38,000  Level FlightAware Transoceanic
Wed 01:37:36 PM 40.3333 -132.4333 99° East 506 582 38,000  Level Oakland Oceanic (ODAPS)
Wed 01:38:00 PM 40.3149 -132.3564 99° East 502 578 38,000  Level FlightAware Transoceanic
Wed 01:39:00 PM 40.2924 -132.1743 99° East 502 578 38,000  Level FlightAware Transoceanic
Wed 01:40:00 PM 40.2696 -131.9924 99° East 502 578 38,000  Level FlightAware Transoceanic
Wed 01:41:00 PM 40.2465 -131.8107 100° East 502 578 38,000  Level FlightAware Transoceanic
Wed 01:42:00 PM 40.2231 -131.6290 100° East 502 578 38,000  Level FlightAware Transoceanic
Wed 01:43:00 PM 40.1967 -131.3876 100° East 506 582 38,000  Level FlightAware Transoceanic
Wed 01:44:00 PM 40.1730 -131.2137 100° East 506 582 38,000  Level FlightAware Transoceanic
Wed 01:45:00 PM 40.1491 -131.0399 100° East 506 582 38,000  Level FlightAware Transoceanic
Wed 01:46:00 PM 40.1249 -130.8663 100° East 506 582 38,000  Level FlightAware Transoceanic
Wed 01:47:00 PM 40.1004 -130.6928 101° East 506 582 38,000  Level FlightAware Transoceanic
Wed 01:48:00 PM 40.0757 -130.5194 101° East 506 582 38,000  Level FlightAware Transoceanic
Wed 01:49:00 PM 40.0507 -130.3461 101° East 506 582 38,000  Level FlightAware Transoceanic
Wed 01:50:00 PM 40.0255 -130.1730 101° East 506 582 38,000  Level FlightAware Transoceanic
Wed 01:51:00 PM 40.0000 -130.0000 89° East 506 582 38,000  Level FlightAware Transoceanic
Wed 01:52:00 PM 40.0023 -129.8125 89° East 506 582 38,000  Level FlightAware Transoceanic
Wed 01:52:16 PM 40.0000 -130.0000 89° East 522 601 38,000  Level Oakland Oceanic (ODAPS)
Wed 01:52:26 PM 40.0000 -129.9000 89° East 520 598 38,000  Level Oakland Oceanic (ODAPS)
Wed 01:53:00 PM 40.0042 -129.6250 89° East 506 582 38,000  Level FlightAware Transoceanic
Wed 01:54:00 PM 40.0059 -129.4375 89° East 506 582 38,000  Level FlightAware Transoceanic
Wed 01:55:00 PM 40.0073 -129.2500 90° East 506 582 38,000  Level FlightAware Transoceanic
Wed 01:56:00 PM 40.0083 -129.0625 90° East 506 582 38,000  Level FlightAware Transoceanic
Wed 01:57:00 PM 40.0091 -128.8750 90° East 506 582 38,000  Level FlightAware Transoceanic
Wed 01:58:00 PM 40.0089 -128.6313 90° East 520 598 38,000  Level FlightAware Transoceanic
Wed 01:59:00 PM 40.0090 -128.4500 90° East 520 598 38,000  Level FlightAware Transoceanic
Wed 02:00:00 PM 40.0089 -128.2687 90° East 520 598 38,000  Level FlightAware Transoceanic
Wed 02:01:00 PM 40.0085 -128.0875 90° East 520 598 38,000  Level FlightAware Transoceanic
Wed 02:02:00 PM 40.0078 -127.9062 90° East 520 598 38,000  Level FlightAware Transoceanic
Wed 02:03:00 PM 40.0068 -127.7250 90° East 520 598 38,000  Level FlightAware Transoceanic
Wed 02:04:00 PM 40.0055 -127.5437 91° East 520 598 38,000  Level FlightAware Transoceanic
Wed 02:04:10 PM 40.0119 -127.5197 107° East 516 594 38,000  Level Oakland Center
Wed 02:05:00 PM 40.0039 -127.3625 91° East 520 598 38,000  Level FlightAware Transoceanic
Wed 02:05:12 PM 40.0106 -127.3325 94° East 517 595 38,000  Level Oakland Center
Wed 02:05:16 PM 40.0167 -127.3000 94° East 523 602 38,000  Level Oakland Oceanic (ODAPS)
Wed 02:06:00 PM 40.0021 -127.1812 91° East 520 598 38,000  Level FlightAware Transoceanic
Wed 02:06:14 PM 40.0092 -127.1450 90° East 518 596 38,000  Level Oakland Center
Wed 02:07:00 PM 40.0000 -127.0000 107° East 520 598 38,000  Level FlightAware Transoceanic
Wed 02:07:15 PM 39.9986 -126.9586 94° East 517 595 38,000  Level Oakland Center
Wed 02:08:00 PM 39.9554 -126.8109 107° East 520 598 38,000  Level FlightAware Transoceanic
Wed 02:09:00 PM 39.9104 -126.6221 107° East 520 598 38,000  Level FlightAware Transoceanic
Wed 02:12:37 PM 39.8410 -125.9430 94° East 521 600 38,000  Level FlightAware ADS-B
Wed 02:13:17 PM 39.8400 -125.8080 91° East 538 619 38,000  Level FlightAware ADS-B
Wed 02:13:47 PM 39.8310 -125.7340 99° East 538 619 38,000 686 Level FlightAware ADS-B
Wed 02:14:27 PM 39.8140 -125.5970 99° East 538 619 38,800 800 Climbing FlightAware ADS-B
Wed 02:15:02 PM 39.7850 -125.4980 111° Southeast 511 588 39,000 160 Climbing FlightAware ADS-B
Wed 02:15:42 PM 39.7700 -125.3820 100° East 512 589 39,000  Level FlightAware ADS-B
Wed 02:16:17 PM 39.7560 -125.2710 99° East 513 590 39,000  Level FlightAware ADS-B
Wed 02:16:57 PM 39.7400 -125.1560 100° East 513 590 39,000  Level FlightAware ADS-B
Wed 02:17:44 PM 39.7250 -125.0330 99° East 505 581 39,000  Level FlightAware ADS-B
Wed 02:18:17 PM 39.7210 -124.8940 92° East 505 581 39,000  Level FlightAware ADS-B
Wed 02:18:52 PM 39.6960 -124.8190 113° Southeast 508 585 39,000  Level FlightAware ADS-B
Wed 02:19:24 PM 39.6800 -124.7070 100° East 502 578 39,000  Level FlightAware ADS-B
Wed 02:19:57 PM 39.6680 -124.6100 99° East 499 574 39,000  Level FlightAware ADS-B
Wed 02:20:42 PM 39.6610 -124.4600 93° East 499 574 39,000  Level FlightAware ADS-B
Wed 02:21:17 PM 39.6470 -124.3520 100° East 499 574 39,000  Level FlightAware ADS-B
Wed 02:21:53 PM 39.6190 -124.2650 113° Southeast 509 586 39,000  Level FlightAware ADS-B
Wed 02:22:28 PM 39.6160 -124.1400 92° East 510 587 39,000  Level FlightAware ADS-B
Wed 02:23:03 PM 39.6010 -124.0340 100° East 510 587 39,000  Level FlightAware ADS-B
Wed 02:23:38 PM 39.5750 -123.9480 111° Southeast 526 605 39,000  Level FlightAware ADS-B
Wed 02:24:18 PM 39.5690 -123.8080 93° East 501 577 39,000  Level FlightAware ADS-B
Wed 02:24:53 PM 39.5540 -123.7090 101° East 501 577 39,000  Level FlightAware ADS-B
Wed 02:25:32 PM 39.5360 -123.5830 100° East 500 575 39,000  Level FlightAware ADS-B
Wed 02:26:04 PM 39.5210 -123.4860 101° East 500 575 39,000  Level FlightAware ADS-B
Wed 02:26:40 PM 39.5050 -123.3770 101° East 500 575 39,000  Level FlightAware ADS-B
Wed 02:27:10 PM 39.4910 -123.2850 101° East 500 575 39,000  Level FlightAware ADS-B
Wed 02:27:52 PM 39.4620 -123.1760 109° East 518 596 39,000  Level FlightAware ADS-B
Wed 02:28:24 PM 39.4480 -123.0820 101° East 517 595 39,000  Level FlightAware ADS-B
Wed 02:29:00 PM 39.4310 -122.9700 101° East 517 595 39,000  Level FlightAware ADS-B
Wed 02:29:36 PM 39.4140 -122.8610 101° East 516 594 39,000  Level FlightAware ADS-B
Wed 02:30:10 PM 39.3980 -122.7580 101° East 515 593 39,000  Level FlightAware ADS-B
Wed 02:30:44 PM 39.3820 -122.6550 101° East 515 593 39,000  Level FlightAware ADS-B
Wed 02:31:20 PM 39.3660 -122.5480 101° East 515 593 39,000  Level FlightAware ADS-B
Wed 02:31:56 PM 39.3480 -122.4370 102° East 515 593 39,000  Level FlightAware ADS-B
Wed 02:32:33 PM 39.3310 -122.3280 101° East 515 593 39,000  Level FlightAware ADS-B
Wed 02:33:06 PM 39.3150 -122.2260 101° East 515 593 39,000  Level FlightAware ADS-B
Wed 02:33:38 PM 39.3000 -122.1310 102° East 515 593 39,000  Level FlightAware ADS-B
Wed 02:34:16 PM 39.2810 -122.0170 102° East 516 594 39,000  Level FlightAware ADS-B
Wed 02:34:50 PM 39.2650 -121.9150 101° East 516 594 39,000  Level FlightAware ADS-B
Wed 02:35:30 PM 39.2567 -121.8630 102° East 517 595 39,000  Level FlightAware ADS-B
Wed 02:36:01 PM 39.2342 -121.7257 102° East 518 596 39,000  Level FlightAware ADS-B
Wed 02:36:37 PM 39.2120 -121.5930 102° East 516 594 39,000  Level FlightAware ADS-B
Wed 02:36:48 PM 39.2162 -121.5478 83° East 483 556 39,000  Level FlightAware ADS-B
Wed 02:37:51 PM 39.1760 -121.3720 106° East 517 595 39,000  Level FlightAware ADS-B
Wed 02:38:13 PM 39.1655 -121.3104 102° East 515 593 39,000  Level FlightAware ADS-B
Wed 02:38:52 PM 39.1446 -121.1865 102° East 515 593 39,000  Level FlightAware ADS-B
Wed 02:39:24 PM 39.1290 -121.0940 102° East 514 592 39,000  Level FlightAware ADS-B
Wed 02:39:54 PM 39.1133 -121.0020 102° East 513 590 39,000  Level FlightAware ADS-B
Wed 02:40:30 PM 39.0950 -120.8954 102° East 513 590 39,000  Level FlightAware ADS-B
Wed 02:41:00 PM 39.0800 -120.8077 102° East 513 590 39,000  Level FlightAware ADS-B
Wed 02:41:31 PM 39.0640 -120.7152 103° East 513 590 39,000  Level FlightAware ADS-B
Wed 02:42:01 PM 39.0484 -120.6254 103° East 513 590 39,000  Level FlightAware ADS-B
Wed 02:42:41 PM 39.0276 -120.5065 103° East 514 592 39,000  Level FlightAware ADS-B
Wed 02:43:13 PM 39.0118 -120.4161 103° East 515 593 39,000  Level FlightAware ADS-B
Wed 02:43:52 PM 39.0020 -120.2986 96° East 477 549 39,000  Level FlightAware ADS-B
Wed 02:44:26 PM 38.9829 -120.1913 103° East 476 548 39,000  Level FlightAware ADS-B
Wed 02:44:56 PM 38.9666 -120.0995 103° East 479 551 39,000  Level FlightAware ADS-B
Wed 02:45:27 PM 38.9405 -120.0154 112° Southeast 515 593 39,000  Level FlightAware ADS-B
Wed 02:46:06 PM 38.9190 -119.8962 103° East 516 594 39,000  Level FlightAware ADS-B
Wed 02:46:46 PM 38.8975 -119.7778 126° Southeast 517 595 39,000  Level FlightAware ADS-B
Wed 02:47:16 PM 38.8809 -119.6867 103° East 517 595 39,000  Level FlightAware ADS-B
Wed 02:47:47 PM 38.8648 -119.5990 103° East 516 594 39,000  Level FlightAware ADS-B
Wed 02:48:26 PM 38.8427 -119.4789 103° East 517 595 39,000  Level FlightAware ADS-B
Wed 02:49:00 PM 38.8240 -119.3783 103° East 516 594 39,000  Level FlightAware ADS-B
Wed 02:49:31 PM 38.8082 -119.2931 103° East 517 595 39,000  Level FlightAware ADS-B
Wed 02:50:02 PM 38.7892 -119.1921 104° East 517 595 39,000  Level FlightAware ADS-B
Wed 02:50:32 PM 38.7726 -119.1036 104° East 517 595 39,000  Level FlightAware ADS-B
Wed 02:51:02 PM 38.7559 -119.0150 104° East 519 597 39,000  Level FlightAware ADS-B
Wed 02:51:40 PM 38.7346 -118.9031 104° East 519 597 39,000  Level FlightAware ADS-B
Wed 02:52:10 PM 38.7175 -118.8130 104° East 519 597 39,000  Level FlightAware ADS-B
Wed 02:52:49 PM 38.6950 -118.6980 104° East 519 597 39,000  Level FlightAware ADS-B
Wed 02:53:30 PM 38.6720 -118.5770 104° East 520 598 39,000  Level FlightAware ADS-B
Wed 02:54:06 PM 38.6510 -118.4700 104° East 521 600 39,000  Level FlightAware ADS-B
Wed 02:54:42 PM 38.6300 -118.3610 104° East 523 602 39,000  Level FlightAware ADS-B
Wed 02:55:15 PM 38.6100 -118.2600 104° East 522 601 39,000  Level FlightAware ADS-B
Wed 02:55:51 PM 38.5890 -118.1540 104° East 523 602 39,000  Level FlightAware ADS-B
Wed 02:56:25 PM 38.5710 -118.0540 103° East 521 600 39,000  Level FlightAware ADS-B
Wed 02:57:01 PM 38.5600 -117.9450 97° East 521 600 39,000  Level FlightAware ADS-B
Wed 02:57:39 PM 38.5520 -117.8440 96° East 521 600 39,000  Level FlightAware ADS-B
Wed 02:58:09 PM 38.5440 -117.7500 96° East 487 560 39,000  Level FlightAware ADS-B
Wed 02:58:44 PM 38.5360 -117.6310 95° East 520 598 39,000  Level FlightAware ADS-B
Wed 02:59:29 PM 38.5260 -117.4990 95° East 519 597 39,000  Level FlightAware ADS-B
Wed 02:59:59 PM 38.5190 -117.4110 96° East 521 600 39,000  Level FlightAware ADS-B
Wed 03:00:39 PM 38.5120 -117.3070 95° East 521 600 39,000  Level FlightAware ADS-B
Wed 03:01:15 PM 38.5060 -117.2130 95° East 521 600 39,000  Level FlightAware ADS-B
Wed 03:01:44 PM 38.5120 -117.0840 87° East 337 388 39,000  Level FlightAware ADS-B
Wed 03:02:09 PM 38.4880 -117.0050 111° Southeast 522 601 39,000  Level FlightAware ADS-B
Wed 03:02:44 PM 38.4800 -116.8970 95° East 522 601 39,000  Level FlightAware ADS-B
Wed 03:03:24 PM 38.4700 -116.7760 96° East 522 601 39,000  Level FlightAware ADS-B
Wed 03:03:59 PM 38.4610 -116.6680 96° East 522 601 39,000  Level FlightAware ADS-B
Wed 03:04:34 PM 38.4520 -116.5620 96° East 521 600 39,000  Level FlightAware ADS-B
Wed 03:05:09 PM 38.4430 -116.4560 96° East 521 600 39,000  Level FlightAware ADS-B
Wed 03:05:53 PM 38.4520 -116.3360 84° East 519 597 39,000  Level FlightAware ADS-B
Wed 03:06:30 PM 38.4440 -116.2320 96° East 519 597 39,000  Level FlightAware ADS-B
Wed 03:07:04 PM 38.4360 -116.1440 97° East 519 597 39,000  Level FlightAware ADS-B
Wed 03:07:38 PM 38.4290 -116.0550 96° East 519 597 39,000  Level FlightAware ADS-B
Wed 03:08:16 PM 38.4210 -115.9570 96° East 519 597 39,000  Level FlightAware ADS-B
Wed 03:08:53 PM 38.4130 -115.8610 96° East 519 597 39,000  Level FlightAware ADS-B
Wed 03:09:30 PM 38.4050 -115.7650 96° East 519 597 39,000  Level FlightAware ADS-B
Wed 03:10:07 PM 38.3970 -115.6690 96° East 519 597 39,000  Level FlightAware ADS-B
Wed 03:10:43 PM 38.3900 -115.5760 95° East 519 597 39,000  Level FlightAware ADS-B
Wed 03:11:27 PM 38.3800 -115.4620 96° East 519 597 39,000  Level FlightAware ADS-B
Wed 03:12:03 PM 38.3720 -115.3690 96° East 519 597 39,000  Level FlightAware ADS-B
Wed 03:12:39 PM 38.3650 -115.2760 95° East 519 597 39,000  Level FlightAware ADS-B
Wed 03:13:15 PM 38.3570 -115.1830 96° East 519 597 39,000  Level FlightAware ADS-B
Wed 03:13:51 PM 38.3490 -115.0890 96° East 519 597 39,000  Level FlightAware ADS-B
Wed 03:14:28 PM 38.3410 -114.9940 96° East 519 597 39,000  Level FlightAware ADS-B
Wed 03:15:05 PM 38.3340 -114.8980 95° East 519 597 39,000  Level FlightAware ADS-B
Wed 03:15:41 PM 38.3260 -114.8050 96° East 519 597 39,000  Level FlightAware ADS-B
Wed 03:18:47 PM 38.1471 -113.9968 105° East 519 597 39,000  Level FlightAware ADS-B
Wed 03:19:29 PM 38.1200 -113.8910 108° East 520 598 39,000  Level FlightAware ADS-B
Wed 03:19:53 PM 38.1174 -113.7872 92° East 477 549 39,000  Level FlightAware ADS-B
Wed 03:20:45 PM 38.0701 -113.7042 126° Southeast 520 598 39,000  Level FlightAware ADS-B
Wed 03:21:19 PM 38.0500 -113.6190 107° East 520 598 39,000  Level FlightAware ADS-B
Wed 03:21:56 PM 38.0270 -113.5280 108° East 520 598 39,000  Level FlightAware ADS-B
Wed 03:22:34 PM 37.9730 -113.3420 110° East 519 597 39,000  Level FlightAware ADS-B
Wed 03:23:11 PM 37.9436 -113.2311 109° East 523 602 39,000  Level FlightAware ADS-B
Wed 03:24:19 PM 37.8900 -113.0330 109° East 521 600 39,000  Level FlightAware ADS-B
Wed 03:24:54 PM 37.8630 -112.9340 109° East 523 602 39,000  Level FlightAware ADS-B
Wed 03:25:24 PM 37.8390 -112.8440 109° East 523 602 39,000  Level FlightAware ADS-B
Wed 03:26:24 PM 37.7960 -112.6840 109° East 524 603 39,000  Level FlightAware ADS-B
Wed 03:26:46 PM 37.7960 -112.5910 90° East 796 916 39,000  Level FlightAware ADS-B
Wed 03:27:09 PM 37.7760 -112.5200 110° East 461 531 39,000  Level FlightAware ADS-B
Wed 03:27:49 PM 37.7430 -112.4030 110° East 558 642 39,000  Level FlightAware ADS-B
Wed 03:28:29 PM 37.7120 -112.2860 108° East 400 460 39,000  Level FlightAware ADS-B
Wed 03:29:34 PM 37.6530 -112.1260 115° Southeast 528 608 39,000  Level FlightAware ADS-B
Wed 03:30:04 PM 37.6330 -112.0280 104° East 528 608 39,000  Level FlightAware ADS-B
Wed 03:30:44 PM 37.6130 -111.9280 104° East 528 608 39,000  Level FlightAware ADS-B
Wed 03:31:32 PM 37.5800 -111.7700 105° East 528 608 39,000  Level FlightAware ADS-B
Wed 03:32:08 PM 37.5620 -111.6790 104° East 528 608 39,000  Level FlightAware ADS-B
Wed 03:32:45 PM 37.5430 -111.5850 104° East 528 608 39,000  Level FlightAware ADS-B
Wed 03:33:19 PM 37.5100 -111.4390 106° East 527 606 39,000  Level FlightAware ADS-B
Wed 03:33:57 PM 37.4900 -111.3440 105° East 526 605 39,000  Level FlightAware ADS-B
Wed 03:34:33 PM 37.4720 -111.2530 104° East 526 605 39,000  Level FlightAware ADS-B
Wed 03:35:11 PM 37.4530 -111.1570 104° East 526 605 39,000  Level FlightAware ADS-B
Wed 03:35:45 PM 37.4360 -111.0710 104° East 526 605 39,000  Level FlightAware ADS-B
Wed 03:36:25 PM 37.3960 -110.9090 107° East 521 600 39,000  Level FlightAware ADS-B
Wed 03:37:01 PM 37.3880 -110.7630 94° East 521 600 39,000  Level FlightAware ADS-B
Wed 03:37:46 PM 37.3630 -110.6490 105° East 521 600 39,000  Level FlightAware ADS-B
Wed 03:38:22 PM 37.3440 -110.5600 105° East 521 600 39,000  Level FlightAware ADS-B
Wed 03:38:58 PM 37.3250 -110.4700 105° East 521 600 39,000  Level FlightAware ADS-B
Wed 03:39:34 PM 37.3060 -110.3800 105° East 521 600 39,000  Level FlightAware ADS-B
Wed 03:40:10 PM 37.2870 -110.2910 105° East 521 600 39,000  Level FlightAware ADS-B
Wed 03:40:22 PM 37.2718 -110.2415 111° Southeast 476 548 39,000  Level FlightAware ADS-B (KGUC)
Wed 03:41:11 PM 37.2349 -110.0782 106° East 476 548 39,000  Level FlightAware ADS-B (KGUC)
Wed 03:41:55 PM 37.1970 -109.9140 106° East 475 547 39,000  Level FlightAware ADS-B
Wed 03:42:14 PM 37.1830 -109.8497 105° East 475 547 39,000  Level FlightAware ADS-B
Wed 03:43:01 PM 37.1534 -109.7204 106° East 477 549 39,000  Level FlightAware ADS-B
Wed 03:43:33 PM 37.1274 -109.6081 106° East 475 547 39,000  Level FlightAware ADS-B (KGUC)
Wed 03:44:08 PM 37.1039 -109.5062 106° East 476 548 39,000  Level FlightAware ADS-B (KGUC)
Wed 03:44:39 PM 37.1270 -109.6010 287° West 477 549 39,000  Level FlightAware ADS-B
Wed 03:44:43 PM 37.0849 -109.4235 107° East 478 550 39,000  Level FlightAware ADS-B (KGUC)
Wed 03:45:15 PM 37.1090 -109.5200 287° West 477 549 39,000  Level FlightAware ADS-B
Wed 03:45:23 PM 37.0519 -109.2823 107° East 480 552 39,000  Level FlightAware ADS-B
Wed 03:45:57 PM 37.0281 -109.1814 106° East 481 554 39,000  Level FlightAware ADS-B
Wed 03:46:28 PM 37.0054 -109.0853 106° East 481 554 39,000  Level FlightAware ADS-B (KGUC)
Wed 03:47:02 PM 36.9870 -109.0040 106° East 481 554 39,000  Level FlightAware ADS-B
Wed 03:47:15 PM 36.9795 -108.9754 108° East 483 556 39,000  Level FlightAware ADS-B (KGUC)
Wed 03:47:45 PM 36.9496 -108.8496 107° East 483 556 39,000  Level FlightAware ADS-B (KGUC)
Wed 03:48:16 PM 36.9480 -108.8350 98° East 481 554 39,000  Level FlightAware ADS-B
Wed 03:48:31 PM 36.9161 -108.7086 107° East 484 557 39,000  Level FlightAware ADS-B (KGUC)
Wed 03:49:05 PM 36.8918 -108.6075 107° East 486 559 39,000  Level FlightAware ADS-B
Wed 03:49:44 PM 36.8629 -108.4875 107° East 482 555 39,000  Level FlightAware ADS-B
Wed 03:50:17 PM 36.8389 -108.3887 107° East 487 560 39,000  Level FlightAware ADS-B
Wed 03:50:47 PM 36.8160 -108.2941 107° East 487 560 39,000  Level FlightAware ADS-B
Wed 03:51:21 PM 36.7910 -108.1916 107° East 489 563 39,000  Level FlightAware ADS-B
Wed 03:51:56 PM 36.7649 -108.0850 107° East 490 564 39,000  Level FlightAware ADS-B (KGUC)
Wed 03:52:31 PM 36.7398 -107.9743 106° East 490 564 39,000  Level FlightAware ADS-B
Wed 03:53:01 PM 36.7218 -107.8843 104° East 491 565 39,000  Level FlightAware ADS-B
Wed 03:53:33 PM 36.7014 -107.7831 104° East 491 565 39,000  Level FlightAware ADS-B
Wed 03:53:41 PM 36.6993 -107.7726 104° East 491 565 39,000  Level FlightAware ADS-B (KGUC)
Wed 03:54:13 PM 36.6762 -107.6598 104° East 490 564 39,000  Level FlightAware ADS-B
Wed 03:54:45 PM 36.6431 -107.5895 120° Southeast 558 642 39,000  Level FlightAware ADS-B
Wed 03:55:20 PM 36.6322 -107.4504 96° East 491 565 39,000  Level FlightAware ADS-B
Wed 03:55:50 PM 36.6128 -107.3589 105° East 489 563 39,000  Level FlightAware ADS-B
Wed 03:56:20 PM 36.5925 -107.2648 105° East 490 564 39,000  Level FlightAware ADS-B
Wed 03:56:52 PM 36.5714 -107.1664 105° East 489 563 39,000  Level FlightAware ADS-B
Wed 03:57:22 PM 36.5651 -107.1373 105° East 490 564 39,000  Level FlightAware ADS-B (KGUC)
Wed 03:57:34 PM 36.5311 -107.0657 121° Southeast 564 649 39,000  Level FlightAware ADS-B
Wed 03:58:22 PM 36.5651 -107.1373 301° West 561 646 39,000  Level FlightAware ADS-B (KGUC)
Wed 03:59:10 PM 36.5651 -107.1373 301° West 562 647 39,000  Level FlightAware ADS-B (KGUC)
Wed 03:59:42 PM 36.5651 -107.1373 301° West 491 565 39,000  Level FlightAware ADS-B (KGUC)
Wed 04:00:33 PM 36.4230 -106.4840 105° East 563 648 39,000  Level FlightAware ADS-B
Wed 04:01:17 PM 36.3940 -106.3500 105° East 555 639 39,000  Level FlightAware ADS-B
Wed 04:01:54 PM 36.3680 -106.2360 106° East 555 639 39,000  Level FlightAware ADS-B
Wed 04:02:30 PM 36.3440 -106.1270 105° East 555 639 39,000  Level FlightAware ADS-B
Wed 04:03:04 PM 36.3200 -106.0220 106° East 557 641 39,000  Level FlightAware ADS-B
Wed 04:03:40 PM 36.2960 -105.9130 105° East 557 641 39,000  Level FlightAware ADS-B
Wed 04:04:22 PM 36.2680 -105.7910 106° East 555 639 39,000  Level FlightAware ADS-B
Wed 04:05:08 PM 36.2390 -105.6570 105° East 555 639 39,000  Level FlightAware ADS-B
Wed 04:05:47 PM 36.2070 -105.5190 106° East 555 639 39,000  Level FlightAware ADS-B
Wed 04:06:17 PM 36.1850 -105.4260 106° East 555 639 39,000  Level FlightAware ADS-B
Wed 04:06:57 PM 36.1570 -105.3070 106° East 555 639 39,000  Level FlightAware ADS-B
Wed 04:07:29 PM 36.1350 -105.2090 106° East 555 639 39,000  Level FlightAware ADS-B
Wed 04:08:05 PM 36.1100 -105.1010 106° East 555 639 39,000  Level FlightAware ADS-B
Wed 04:08:37 PM 36.0880 -105.0060 106° East 555 639 39,000  Level FlightAware ADS-B
Wed 04:09:15 PM 36.0600 -104.8880 106° East 555 639 39,000  Level FlightAware ADS-B
Wed 04:09:48 PM 36.0370 -104.7880 106° East 555 639 39,000  Level FlightAware ADS-B
Wed 04:10:25 PM 36.0110 -104.6790 106° East 555 639 39,000  Level FlightAware ADS-B
Wed 04:10:54 PM 35.9930 -104.6020 106° East 555 639 39,000  Level FlightAware ADS-B
Wed 04:11:34 PM 35.9630 -104.4750 106° East 555 639 39,000  Level FlightAware ADS-B
Wed 04:12:11 PM 35.9340 -104.3560 107° East 555 639 39,000  Level FlightAware ADS-B
Wed 04:12:46 PM 35.9090 -104.2500 106° East 555 639 39,000  Level FlightAware ADS-B
Wed 04:13:19 PM 35.8850 -104.1510 107° East 555 639 39,000  Level FlightAware ADS-B
Wed 04:13:55 PM 35.8580 -104.0420 107° East 555 639 39,000  Level FlightAware ADS-B
Wed 04:14:28 PM 35.8340 -103.9420 106° East 555 639 39,000  Level FlightAware ADS-B
Wed 04:15:05 PM 35.8070 -103.8310 107° East 555 639 39,000  Level FlightAware ADS-B
Wed 04:15:39 PM 35.7820 -103.7270 106° East 555 639 39,000  Level FlightAware ADS-B
Wed 04:16:14 PM 35.7560 -103.6240 107° East 555 639 39,000  Level FlightAware ADS-B
Wed 04:16:46 PM 35.7320 -103.5260 107° East 555 639 39,000  Level FlightAware ADS-B
Wed 04:17:25 PM 35.7030 -103.4080 107° East 555 639 39,000  Level FlightAware ADS-B
Wed 04:18:02 PM 35.6750 -103.2980 107° East 555 639 39,000  Level FlightAware ADS-B
Wed 04:18:35 PM 35.6510 -103.2010 107° East 555 639 39,000  Level FlightAware ADS-B
Wed 04:19:09 PM 35.6250 -103.0980 107° East 555 639 39,000  Level FlightAware ADS-B
Wed 04:19:46 PM 35.5970 -102.9860 107° East 555 639 39,000  Level FlightAware ADS-B
Wed 04:20:19 PM 35.5720 -102.8880 107° East 555 639 39,000  Level FlightAware ADS-B
Wed 04:20:51 PM 35.5480 -102.7920 107° East 555 639 39,000  Level FlightAware ADS-B
Wed 04:21:31 PM 35.5170 -102.6740 108° East 555 639 39,000  Level FlightAware ADS-B
Wed 04:22:04 PM 35.4890 -102.5750 109° East 555 639 39,000  Level FlightAware ADS-B
Wed 04:22:38 PM 35.4540 -102.4840 115° Southeast 555 639 39,000  Level FlightAware ADS-B
Wed 04:23:15 PM 35.4130 -102.3820 116° Southeast 555 639 39,000  Level FlightAware ADS-B
Wed 04:23:47 PM 35.3780 -102.2900 115° Southeast 555 639 39,000  Level FlightAware ADS-B
Wed 04:24:25 PM 35.3400 -102.1870 114° Southeast 555 639 39,000  Level FlightAware ADS-B
Wed 04:25:02 PM 35.3010 -102.0820 114° Southeast 555 639 39,000  Level FlightAware ADS-B
Wed 04:25:33 PM 35.2700 -101.9980 114° Southeast 555 639 39,000  Level FlightAware ADS-B
Wed 04:26:10 PM 35.2310 -101.8960 115° Southeast 694 799 39,000  Level FlightAware ADS-B
Wed 04:26:46 PM 35.1940 -101.7950 114° Southeast 596 686 39,000  Level FlightAware ADS-B
Wed 04:27:17 PM 35.1620 -101.7090 114° Southeast 448 516 39,000  Level FlightAware ADS-B
Wed 04:27:40 PM 35.1370 -101.6460 116° Southeast 555 639 39,000  Level FlightAware ADS-B
Wed 04:28:15 PM 35.1000 -101.5480 115° Southeast 555 639 39,000  Level FlightAware ADS-B
Wed 04:28:52 PM 35.0620 -101.4500 115° Southeast 555 639 39,000  Level FlightAware ADS-B
Wed 04:29:27 PM 35.0240 -101.3540 116° Southeast 555 639 39,000  Level FlightAware ADS-B
Wed 04:29:59 PM 34.9900 -101.2650 115° Southeast 555 639 39,000  Level FlightAware ADS-B
Wed 04:30:34 PM 34.9540 -101.1730 115° Southeast 555 639 39,000  Level FlightAware ADS-B
Wed 04:30:56 PM 34.9330 -101.1190 115° Southeast 530 610 39,000  Level FlightAware ADS-B
Wed 04:31:32 PM 34.8910 -101.0140 116° Southeast 489 563 39,000  Level FlightAware ADS-B
Wed 04:32:09 PM 34.8510 -100.9120 116° Southeast 555 639 39,000  Level FlightAware ADS-B
Wed 04:32:39 PM 34.8190 -100.8300 115° Southeast 437 503 39,000  Level FlightAware ADS-B
Wed 04:33:18 PM 34.7770 -100.7240 116° Southeast 538 619 39,000  Level FlightAware ADS-B
Wed 04:33:53 PM 34.7390 -100.6280 116° Southeast 632 727 39,000  Level FlightAware ADS-B
Wed 04:34:28 PM 34.7020 -100.5360 116° Southeast 539 620 39,000  Level FlightAware ADS-B
Wed 04:35:02 PM 34.6650 -100.4430 116° Southeast 462 532 39,000  Level FlightAware ADS-B
Wed 04:35:38 PM 34.6260 -100.3470 116° Southeast 545 627 39,000  Level FlightAware ADS-B
Wed 04:36:10 PM 34.5910 -100.2580 116° Southeast 470 541 39,000  Level FlightAware ADS-B
Wed 04:36:47 PM 34.5500 -100.1580 116° Southeast 567 652 39,000  Level FlightAware ADS-B
Wed 04:37:21 PM 34.5140 -100.0680 116° Southeast 490 564 39,000  Level FlightAware ADS-B
Wed 04:37:52 PM 34.4800 -99.9850 116° Southeast 273 314 39,000  Level FlightAware ADS-B
Wed 04:38:33 PM 34.4350 -99.8740 116° Southeast 623 717 39,000  Level FlightAware ADS-B
Wed 04:39:06 PM 34.4000 -99.7890 117° Southeast 547 629 39,000  Level FlightAware ADS-B
Wed 04:39:43 PM 34.3370 -99.7170 137° Southeast 530 610 39,000  Level FlightAware ADS-B
Wed 04:40:15 PM 34.3010 -99.6300 117° Southeast 530 610 39,000 -174 Level FlightAware ADS-B
Wed 04:40:52 PM 34.2610 -99.5330 116° Southeast 529 609 38,800 -870 Descending FlightAware ADS-B
Wed 04:41:24 PM 34.2270 -99.4510 117° Southeast 533 613 38,000 -1,371 Descending FlightAware ADS-B
Wed 04:42:02 PM 34.1850 -99.3500 117° Southeast 535 616 37,200 -1,521 Descending FlightAware ADS-B
Wed 04:42:35 PM 34.1460 -99.2640 119° Southeast 534 615 36,200 -897 Descending FlightAware ADS-B
Wed 04:43:29 PM 34.0870 -99.1420 120° Southeast 527 606 35,900 -2,188 Descending FlightAware ADS-B
Wed 04:44:00 PM 34.0450 -99.0460 118° Southeast 536 617 33,100 -3,785 Descending FlightAware ADS-B
Wed 04:44:34 PM 34.0100 -98.9560 115° Southeast 531 611 31,800 -1,054 Descending FlightAware ADS-B
Wed 04:45:14 PM 33.9740 -98.8650 115° Southeast 531 611 31,800 -2,314 Level FlightAware ADS-B
Wed 04:45:44 PM 33.9330 -98.7730 118° Southeast 512 589 29,100 -3,565 Descending FlightAware ADS-B
Wed 04:46:23 PM 33.8870 -98.6800 121° Southeast 495 570 27,700 -2,049 Descending FlightAware ADS-B
Wed 04:47:06 PM 33.8380 -98.5800 121° Southeast 485 558 26,300 -1,952 Descending FlightAware ADS-B
Wed 04:47:46 PM 33.7950 -98.4890 120° Southeast 474 545 25,000 -1,974 Descending FlightAware ADS-B
Wed 04:48:22 PM 33.7540 -98.4050 120° Southeast 466 536 23,800 -1,970 Descending FlightAware ADS-B
Wed 04:48:53 PM 33.7210 -98.3360 120° Southeast 459 528 22,800 -1,286 Descending FlightAware ADS-B
Wed 04:49:46 PM 33.6690 -98.2260 120° Southeast 453 521 22,000 -1,835 Descending FlightAware ADS-B
Wed 04:50:18 PM 33.6320 -98.1510 121° Southeast 439 505 20,200 -2,571 Descending FlightAware ADS-B
Wed 04:50:49 PM 33.6030 -98.0900 120° Southeast 431 496 19,300 -1,295 Descending FlightAware ADS-B
Wed 04:51:46 PM 33.5490 -97.9780 120° Southeast 425 489 18,300 -1,931 Descending FlightAware ADS-B
Wed 04:52:16 PM 33.5160 -97.9110 121° Southeast 412 474 16,500 -2,636 Descending FlightAware ADS-B
Wed 04:52:52 PM 33.4820 -97.8410 120° Southeast 405 466 15,400 -1,739 Descending FlightAware ADS-B
Wed 04:53:25 PM 33.4510 -97.7780 121° Southeast 399 459 14,500 -1,629 Descending FlightAware ADS-B
Wed 04:54:02 PM 33.4170 -97.7090 121° Southeast 391 450 13,500 -1,532 Descending FlightAware ADS-B
Wed 04:54:12 PM 33.4130 -97.7006 120° Southeast 386 444 13,300 -1,833 Descending FlightAware ADS-B
Wed 04:55:14 PM 33.3400 -97.5900 128° Southeast 360 414 11,300 -1,500 Descending FlightAware ADS-B
Wed 04:55:48 PM 33.3010 -97.5440 135° Southeast 351 404 10,900 -393 Descending FlightAware ADS-B
Wed 04:56:15 PM 33.2744 -97.5128 136° Southeast 355 409 10,900  Level FlightAware ADS-B
Wed 04:56:52 PM 33.2351 -97.4669 136° Southeast 355 409 10,900  Level FlightAware ADS-B
Wed 04:57:25 PM 33.1910 -97.4153 136° Southeast 356 410 10,900  Level FlightAware ADS-B
Wed 04:58:06 PM 33.1485 -97.3655 136° Southeast 355 409 10,900  Level FlightAware ADS-B
Wed 04:58:43 PM 33.1067 -97.3166 136° Southeast 333 383 10,900  Level FlightAware ADS-B
Wed 04:59:15 PM 33.0710 -97.2748 136° Southeast 299 344 10,900  Level FlightAware ADS-B
Wed 04:59:52 PM 33.0362 -97.2343 136° Southeast 268 308 10,900  Level FlightAware ADS-B
Wed 05:00:25 PM 33.0052 -97.1985 136° Southeast 268 308 10,900  Level FlightAware ADS-B
Wed 05:00:54 PM 32.9782 -97.1744 143° Southeast 262 302 10,900  Level FlightAware ADS-B
Wed 05:01:15 PM 32.9561 -97.1705 172° South 253 291 10,900 -621 Level FlightAware ADS-B
Wed 05:01:52 PM 32.9123 -97.1699 179° South 248 285 10,300 -980 Descending FlightAware ADS-B
Wed 05:02:04 PM 32.8991 -97.1698 180° South 246 283 10,100 -1,091 Descending FlightAware ADS-B
Wed 05:02:25 PM 32.8751 -97.1698 180° South 241 277 9,700 -1,034 Descending FlightAware ADS-B
Wed 05:02:33 PM 32.8661 -97.1698 180° South 239 275 9,600 -900 Descending FlightAware ADS-B
Wed 05:02:45 PM 32.8514 -97.1696 179° South 237 273 9,400 -1,034 Descending FlightAware ADS-B
Wed 05:03:02 PM 32.8306 -97.1695 180° South 235 270 9,100 -1,263 Descending FlightAware ADS-B
Wed 05:03:23 PM 32.8126 -97.1694 180° South 236 272 8,600 -1,463 Descending FlightAware ADS-B
Wed 05:03:43 PM 32.7897 -97.1691 179° South 236 272 8,100 -1,317 Descending FlightAware ADS-B
Wed 05:04:04 PM 32.7721 -97.1689 179° South 226 260 7,700 -1,304 Descending FlightAware ADS-B
Wed 05:04:29 PM 32.7426 -97.1686 180° South 226 260 7,100 -2,036 Descending FlightAware ADS-B
Wed 05:05:00 PM 32.7080 -97.1520 158° South 221 254 5,800 -2,154 Descending FlightAware ADS-B
Wed 05:05:08 PM 32.7040 -97.1440 121° Southeast 217 250 5,700 -1,125 Descending FlightAware ADS-B
Wed 05:05:16 PM 32.7030 -97.1340 97° East 209 241 5,500 -429 Descending FlightAware ADS-B
Wed 05:05:22 PM 32.7029 -97.1351 264° West 215 247 5,600 -1,833 Climbing FlightAware ADS-B
Wed 05:05:52 PM 32.7010 -97.0930 93° East 204 235 4,400 -1,759 Descending FlightAware ADS-B
Wed 05:06:20 PM 32.7100 -97.0690 66° East 190 219 3,900 -857 Descending FlightAware ADS-B
Wed 05:06:41 PM 32.7250 -97.0600 27° Northeast 177 204 3,700 -692 Descending FlightAware ADS-B
Wed 05:06:46 PM 32.7290 -97.0580 23° Northeast 173 199 3,600 -1,286 Descending FlightAware ADS-B
Wed 05:06:55 PM 32.7370 -97.0560 12° North 170 196 3,400 -900 Descending FlightAware ADS-B
Wed 05:07:06 PM 32.7450 -97.0560 360° North 164 189 3,300  Descending FlightAware ADS-B
Wed 05:07:20 PM 32.7540 -97.0560 360° North 153 176 3,400 -343 Climbing FlightAware ADS-B
Wed 05:07:41 PM 32.7710 -97.0560 360° North 170 196 3,100 -1,200 Descending FlightAware ADS-B
Wed 05:08:05 PM 32.7900 -97.0550 North 167 192 2,500 -1,500 Descending FlightAware ADS-B
Wed 05:08:25 PM 32.8050 -97.0550 360° North 162 186 2,000 -667 Descending FlightAware ADS-B
Wed 05:08:59 PM 32.8250 -97.0550 360° North 158 182 1,900 -732 Descending FlightAware ADS-B
Wed 05:09:06 PM 32.8310 -97.0550 360° North 135 155 1,500 -1,448 Descending FlightAware ADS-B
Wed 05:09:28 PM 32.8430 -97.0550 360° North 138 159 1,200 -367 Descending FlightAware ADS-B
Wed 05:09:55 PM 32.8580 -97.0550 360° North 138 159 1,200 -727 Level FlightAware ADS-B
Wed 05:10:01 PM 32.8460 -97.0550 180° South 136 157 800 -706 Descending FlightAware ADS-B
Wed 05:10:29 PM 32.8610 -97.0550 360° North 136 157 800  Level FlightAware ADS-B

Login

Don't have an account? Register now (free) for customized features, flight alerts, and more!